<?xml version="1.0" encoding="UTF-8" standalone="no" ?>
<gpx xmlns="http://www.topografix.com/GPX/1/1" xmlns:xsi="http://www.w3.org/2001/XMLSchema-instance" xsi:schemaLocation="http://www.topografix.com/GPX/1/1 http://www.topografix.com/GPX/1/1/gpx.xsd" version="1.1" creator="VisuGPX - https://www.visugpx.com">
  <metadata>
    <name>Marche nordique de samedi 06/03/2017</name>
    <desc><![CDATA[Marche N du samedi 06/03/2017

Rendez vous salle des sports 9h15 En voiture Parking de la digue aux Etangs de Hollande, Direction Gambaiseuil. Prévoir environ 14 km Point de départ parking LAT: 48.732560 LON: 1.794690 température 10* pluie modéré mais soutenue pendant toute la marche nordique

Démarré	04/03/2017 09:32:12
Terminé	04/03/2017 12:07:18
Durée	02:35:05
Dist. Parcourue	13.68 km
Vitesse Moy	5.3 km/h
Allure Moy	11.3 min par km
Vitesse Max	16.3 km/h
Déniv. Positif	1148.2 m
Déniv. Négatif	1146.3 m
]]></desc>
  </metadata>
  <trk>
    <name><![CDATA[Marche N du samedi 06/03/2017]]></name>
    <desc><![CDATA[Rendez vous salle des sports 9h15
En voiture Parking de la digue aux Etangs de Hollande, Direction Gambaiseuil. 
Prévoir environ 14 km
Point de départ parking                                  LAT: 48.732560                                                 LON: 1.794690                                                 température 10* pluie modéré mais soutenue pendant toute la marche nordique ]]></desc>
    <trkseg>
      <trkpt lat="48.73259" lon="1.79487">
        <ele>172.38781738281</ele>
        <time>2017-03-04T08:32:12Z</time>
      </trkpt>
      <trkpt lat="48.73282" lon="1.79479">
        <ele>172.55944824219</ele>
        <time>2017-03-04T08:32:54Z</time>
      </trkpt>
      <trkpt lat="48.73293" lon="1.79468">
        <ele>173.07702636719</ele>
        <time>2017-03-04T08:33:02Z</time>
      </trkpt>
      <trkpt lat="48.73306" lon="1.7946">
        <ele>172.23278808594</ele>
        <time>2017-03-04T08:33:12Z</time>
      </trkpt>
      <trkpt lat="48.73317" lon="1.79446">
        <ele>180.12670898438</ele>
        <time>2017-03-04T08:33:22Z</time>
      </trkpt>
      <trkpt lat="48.73328" lon="1.79432">
        <ele>178.80529785156</ele>
        <time>2017-03-04T08:33:36Z</time>
      </trkpt>
      <trkpt lat="48.73342" lon="1.79422">
        <ele>179.28002929688</ele>
        <time>2017-03-04T08:33:46Z</time>
      </trkpt>
      <trkpt lat="48.73355" lon="1.79421">
        <ele>180.98205566406</ele>
        <time>2017-03-04T08:33:55Z</time>
      </trkpt>
      <trkpt lat="48.73369" lon="1.79419">
        <ele>180.36761474609</ele>
        <time>2017-03-04T08:34:03Z</time>
      </trkpt>
      <trkpt lat="48.73382" lon="1.79413">
        <ele>183.59820556641</ele>
        <time>2017-03-04T08:34:11Z</time>
      </trkpt>
      <trkpt lat="48.73393" lon="1.79402">
        <ele>183.18212890625</ele>
        <time>2017-03-04T08:34:20Z</time>
      </trkpt>
      <trkpt lat="48.73409" lon="1.79403">
        <ele>173.82568359375</ele>
        <time>2017-03-04T08:34:29Z</time>
      </trkpt>
      <trkpt lat="48.73424" lon="1.79407">
        <ele>170.30651855469</ele>
        <time>2017-03-04T08:34:37Z</time>
      </trkpt>
      <trkpt lat="48.73438" lon="1.79406">
        <ele>172.67004394531</ele>
        <time>2017-03-04T08:34:46Z</time>
      </trkpt>
      <trkpt lat="48.73452" lon="1.79402">
        <ele>173.47717285156</ele>
        <time>2017-03-04T08:34:55Z</time>
      </trkpt>
      <trkpt lat="48.73466" lon="1.79394">
        <ele>184.47503662109</ele>
        <time>2017-03-04T08:35:09Z</time>
      </trkpt>
      <trkpt lat="48.73482" lon="1.79394">
        <ele>181.06085205078</ele>
        <time>2017-03-04T08:35:14Z</time>
      </trkpt>
      <trkpt lat="48.73497" lon="1.79388">
        <ele>181.43298339844</ele>
        <time>2017-03-04T08:35:20Z</time>
      </trkpt>
      <trkpt lat="48.73511" lon="1.79382">
        <ele>179.68597412109</ele>
        <time>2017-03-04T08:35:25Z</time>
      </trkpt>
      <trkpt lat="48.73524" lon="1.79368">
        <ele>179.29162597656</ele>
        <time>2017-03-04T08:35:34Z</time>
      </trkpt>
      <trkpt lat="48.73534" lon="1.79355">
        <ele>185.30749511719</ele>
        <time>2017-03-04T08:35:39Z</time>
      </trkpt>
      <trkpt lat="48.73541" lon="1.79336">
        <ele>183.72497558594</ele>
        <time>2017-03-04T08:35:48Z</time>
      </trkpt>
      <trkpt lat="48.73545" lon="1.79316">
        <ele>181.09265136719</ele>
        <time>2017-03-04T08:35:55Z</time>
      </trkpt>
      <trkpt lat="48.73547" lon="1.79294">
        <ele>180.31353759766</ele>
        <time>2017-03-04T08:36:07Z</time>
      </trkpt>
      <trkpt lat="48.73552" lon="1.79272">
        <ele>180.68408203125</ele>
        <time>2017-03-04T08:36:15Z</time>
      </trkpt>
      <trkpt lat="48.73558" lon="1.79254">
        <ele>181.63110351562</ele>
        <time>2017-03-04T08:36:24Z</time>
      </trkpt>
      <trkpt lat="48.73559" lon="1.79233">
        <ele>182.4912109375</ele>
        <time>2017-03-04T08:36:32Z</time>
      </trkpt>
      <trkpt lat="48.73561" lon="1.79212">
        <ele>179.89849853516</ele>
        <time>2017-03-04T08:36:39Z</time>
      </trkpt>
      <trkpt lat="48.73564" lon="1.79192">
        <ele>177.01739501953</ele>
        <time>2017-03-04T08:36:47Z</time>
      </trkpt>
      <trkpt lat="48.73569" lon="1.7917">
        <ele>175.13458251953</ele>
        <time>2017-03-04T08:36:54Z</time>
      </trkpt>
      <trkpt lat="48.73575" lon="1.7914">
        <ele>178.20520019531</ele>
        <time>2017-03-04T08:37:09Z</time>
      </trkpt>
      <trkpt lat="48.73581" lon="1.79118">
        <ele>175.15386962891</ele>
        <time>2017-03-04T08:37:21Z</time>
      </trkpt>
      <trkpt lat="48.73591" lon="1.79101">
        <ele>179.02416992188</ele>
        <time>2017-03-04T08:37:32Z</time>
      </trkpt>
      <trkpt lat="48.73595" lon="1.79081">
        <ele>175.22106933594</ele>
        <time>2017-03-04T08:37:41Z</time>
      </trkpt>
      <trkpt lat="48.73602" lon="1.79059">
        <ele>175.26507568359</ele>
        <time>2017-03-04T08:37:52Z</time>
      </trkpt>
      <trkpt lat="48.73603" lon="1.79038">
        <ele>173.31713867188</ele>
        <time>2017-03-04T08:37:57Z</time>
      </trkpt>
      <trkpt lat="48.73604" lon="1.79016">
        <ele>172.54510498047</ele>
        <time>2017-03-04T08:38:06Z</time>
      </trkpt>
      <trkpt lat="48.73605" lon="1.78995">
        <ele>178.22467041016</ele>
        <time>2017-03-04T08:38:13Z</time>
      </trkpt>
      <trkpt lat="48.73603" lon="1.78974">
        <ele>175.18585205078</ele>
        <time>2017-03-04T08:38:20Z</time>
      </trkpt>
      <trkpt lat="48.73609" lon="1.78955">
        <ele>172.48944091797</ele>
        <time>2017-03-04T08:38:31Z</time>
      </trkpt>
      <trkpt lat="48.73612" lon="1.78934">
        <ele>175.96313476562</ele>
        <time>2017-03-04T08:38:37Z</time>
      </trkpt>
      <trkpt lat="48.7362" lon="1.78916">
        <ele>180.96557617188</ele>
        <time>2017-03-04T08:38:45Z</time>
      </trkpt>
      <trkpt lat="48.73622" lon="1.78894">
        <ele>179.93920898438</ele>
        <time>2017-03-04T08:38:56Z</time>
      </trkpt>
      <trkpt lat="48.73628" lon="1.78873">
        <ele>184.67755126953</ele>
        <time>2017-03-04T08:39:07Z</time>
      </trkpt>
      <trkpt lat="48.73631" lon="1.78853">
        <ele>177.75231933594</ele>
        <time>2017-03-04T08:39:14Z</time>
      </trkpt>
      <trkpt lat="48.73637" lon="1.78834">
        <ele>175.36462402344</ele>
        <time>2017-03-04T08:39:22Z</time>
      </trkpt>
      <trkpt lat="48.73643" lon="1.78815">
        <ele>178.70739746094</ele>
        <time>2017-03-04T08:39:30Z</time>
      </trkpt>
      <trkpt lat="48.73648" lon="1.78795">
        <ele>176.05072021484</ele>
        <time>2017-03-04T08:39:40Z</time>
      </trkpt>
      <trkpt lat="48.73652" lon="1.78775">
        <ele>179.66223144531</ele>
        <time>2017-03-04T08:39:47Z</time>
      </trkpt>
      <trkpt lat="48.73654" lon="1.78753">
        <ele>175.298828125</ele>
        <time>2017-03-04T08:39:57Z</time>
      </trkpt>
      <trkpt lat="48.73657" lon="1.78731">
        <ele>176.75805664062</ele>
        <time>2017-03-04T08:40:08Z</time>
      </trkpt>
      <trkpt lat="48.7366" lon="1.78709">
        <ele>178.60699462891</ele>
        <time>2017-03-04T08:40:15Z</time>
      </trkpt>
      <trkpt lat="48.73663" lon="1.78688">
        <ele>173.00616455078</ele>
        <time>2017-03-04T08:40:24Z</time>
      </trkpt>
      <trkpt lat="48.73668" lon="1.78668">
        <ele>173.72692871094</ele>
        <time>2017-03-04T08:40:32Z</time>
      </trkpt>
      <trkpt lat="48.73675" lon="1.78648">
        <ele>176.58312988281</ele>
        <time>2017-03-04T08:40:41Z</time>
      </trkpt>
      <trkpt lat="48.73682" lon="1.78626">
        <ele>179.29968261719</ele>
        <time>2017-03-04T08:40:50Z</time>
      </trkpt>
      <trkpt lat="48.73685" lon="1.78605">
        <ele>173.77490234375</ele>
        <time>2017-03-04T08:41:00Z</time>
      </trkpt>
      <trkpt lat="48.73688" lon="1.78584">
        <ele>174.5146484375</ele>
        <time>2017-03-04T08:41:09Z</time>
      </trkpt>
      <trkpt lat="48.73692" lon="1.78562">
        <ele>173.01049804688</ele>
        <time>2017-03-04T08:41:20Z</time>
      </trkpt>
      <trkpt lat="48.73692" lon="1.78541">
        <ele>169.65502929688</ele>
        <time>2017-03-04T08:41:28Z</time>
      </trkpt>
      <trkpt lat="48.73699" lon="1.78522">
        <ele>171.65631103516</ele>
        <time>2017-03-04T08:41:36Z</time>
      </trkpt>
      <trkpt lat="48.73705" lon="1.78501">
        <ele>173.75512695312</ele>
        <time>2017-03-04T08:41:45Z</time>
      </trkpt>
      <trkpt lat="48.73709" lon="1.78479">
        <ele>173.95861816406</ele>
        <time>2017-03-04T08:41:53Z</time>
      </trkpt>
      <trkpt lat="48.73713" lon="1.78457">
        <ele>172.09216308594</ele>
        <time>2017-03-04T08:42:04Z</time>
      </trkpt>
      <trkpt lat="48.73717" lon="1.78436">
        <ele>172.39434814453</ele>
        <time>2017-03-04T08:42:09Z</time>
      </trkpt>
      <trkpt lat="48.73722" lon="1.78415">
        <ele>171.47406005859</ele>
        <time>2017-03-04T08:42:21Z</time>
      </trkpt>
      <trkpt lat="48.73728" lon="1.78396">
        <ele>172.74786376953</ele>
        <time>2017-03-04T08:42:32Z</time>
      </trkpt>
      <trkpt lat="48.7373" lon="1.78375">
        <ele>170.71105957031</ele>
        <time>2017-03-04T08:42:41Z</time>
      </trkpt>
      <trkpt lat="48.73734" lon="1.78355">
        <ele>173.42065429688</ele>
        <time>2017-03-04T08:42:49Z</time>
      </trkpt>
      <trkpt lat="48.73738" lon="1.78329">
        <ele>175.59918212891</ele>
        <time>2017-03-04T08:42:59Z</time>
      </trkpt>
      <trkpt lat="48.73744" lon="1.7831">
        <ele>170.50805664062</ele>
        <time>2017-03-04T08:43:06Z</time>
      </trkpt>
      <trkpt lat="48.73746" lon="1.78289">
        <ele>165.28936767578</ele>
        <time>2017-03-04T08:43:16Z</time>
      </trkpt>
      <trkpt lat="48.73755" lon="1.78272">
        <ele>164.56518554688</ele>
        <time>2017-03-04T08:43:26Z</time>
      </trkpt>
      <trkpt lat="48.73762" lon="1.78254">
        <ele>165.27862548828</ele>
        <time>2017-03-04T08:43:34Z</time>
      </trkpt>
      <trkpt lat="48.73765" lon="1.78233">
        <ele>170.18719482422</ele>
        <time>2017-03-04T08:43:41Z</time>
      </trkpt>
      <trkpt lat="48.7376" lon="1.78199">
        <ele>168.9111328125</ele>
        <time>2017-03-04T08:43:58Z</time>
      </trkpt>
      <trkpt lat="48.73758" lon="1.78178">
        <ele>170.14642333984</ele>
        <time>2017-03-04T08:44:08Z</time>
      </trkpt>
      <trkpt lat="48.73761" lon="1.78158">
        <ele>169.80169677734</ele>
        <time>2017-03-04T08:44:15Z</time>
      </trkpt>
      <trkpt lat="48.73762" lon="1.78136">
        <ele>165.76611328125</ele>
        <time>2017-03-04T08:44:23Z</time>
      </trkpt>
      <trkpt lat="48.73768" lon="1.78116">
        <ele>164.42346191406</ele>
        <time>2017-03-04T08:44:32Z</time>
      </trkpt>
      <trkpt lat="48.73773" lon="1.78096">
        <ele>167.29248046875</ele>
        <time>2017-03-04T08:44:40Z</time>
      </trkpt>
      <trkpt lat="48.73775" lon="1.78075">
        <ele>168.98425292969</ele>
        <time>2017-03-04T08:44:51Z</time>
      </trkpt>
      <trkpt lat="48.73776" lon="1.78052">
        <ele>168.71795654297</ele>
        <time>2017-03-04T08:44:57Z</time>
      </trkpt>
      <trkpt lat="48.7378" lon="1.78031">
        <ele>166.68597412109</ele>
        <time>2017-03-04T08:45:07Z</time>
      </trkpt>
      <trkpt lat="48.73783" lon="1.78008">
        <ele>171.23376464844</ele>
        <time>2017-03-04T08:45:16Z</time>
      </trkpt>
      <trkpt lat="48.73788" lon="1.77988">
        <ele>166.01110839844</ele>
        <time>2017-03-04T08:45:23Z</time>
      </trkpt>
      <trkpt lat="48.73793" lon="1.77967">
        <ele>165.24584960938</ele>
        <time>2017-03-04T08:45:32Z</time>
      </trkpt>
      <trkpt lat="48.73799" lon="1.77947">
        <ele>162.63000488281</ele>
        <time>2017-03-04T08:45:41Z</time>
      </trkpt>
      <trkpt lat="48.73811" lon="1.77935">
        <ele>161.98345947266</ele>
        <time>2017-03-04T08:45:52Z</time>
      </trkpt>
      <trkpt lat="48.73819" lon="1.77916">
        <ele>165.52014160156</ele>
        <time>2017-03-04T08:46:02Z</time>
      </trkpt>
      <trkpt lat="48.73825" lon="1.77895">
        <ele>170.91534423828</ele>
        <time>2017-03-04T08:46:11Z</time>
      </trkpt>
      <trkpt lat="48.73828" lon="1.77874">
        <ele>170.79040527344</ele>
        <time>2017-03-04T08:46:17Z</time>
      </trkpt>
      <trkpt lat="48.73824" lon="1.77854">
        <ele>166.89453125</ele>
        <time>2017-03-04T08:46:25Z</time>
      </trkpt>
      <trkpt lat="48.73825" lon="1.77833">
        <ele>162.11743164062</ele>
        <time>2017-03-04T08:46:36Z</time>
      </trkpt>
      <trkpt lat="48.73826" lon="1.77811">
        <ele>162.43920898438</ele>
        <time>2017-03-04T08:46:45Z</time>
      </trkpt>
      <trkpt lat="48.7383" lon="1.77792">
        <ele>160.48095703125</ele>
        <time>2017-03-04T08:46:54Z</time>
      </trkpt>
      <trkpt lat="48.73831" lon="1.77769">
        <ele>163.53839111328</ele>
        <time>2017-03-04T08:47:04Z</time>
      </trkpt>
      <trkpt lat="48.73829" lon="1.77747">
        <ele>164.51989746094</ele>
        <time>2017-03-04T08:47:11Z</time>
      </trkpt>
      <trkpt lat="48.73832" lon="1.77726">
        <ele>165.84295654297</ele>
        <time>2017-03-04T08:47:19Z</time>
      </trkpt>
      <trkpt lat="48.73835" lon="1.77707">
        <ele>167.86492919922</ele>
        <time>2017-03-04T08:47:27Z</time>
      </trkpt>
      <trkpt lat="48.73845" lon="1.77691">
        <ele>166.56512451172</ele>
        <time>2017-03-04T08:47:37Z</time>
      </trkpt>
      <trkpt lat="48.73846" lon="1.7767">
        <ele>165.47216796875</ele>
        <time>2017-03-04T08:47:50Z</time>
      </trkpt>
      <trkpt lat="48.73848" lon="1.7765">
        <ele>167.49371337891</ele>
        <time>2017-03-04T08:47:56Z</time>
      </trkpt>
      <trkpt lat="48.73848" lon="1.77628">
        <ele>167.7275390625</ele>
        <time>2017-03-04T08:48:08Z</time>
      </trkpt>
      <trkpt lat="48.73855" lon="1.77605">
        <ele>170.79418945312</ele>
        <time>2017-03-04T08:48:21Z</time>
      </trkpt>
      <trkpt lat="48.73861" lon="1.77585">
        <ele>170.44860839844</ele>
        <time>2017-03-04T08:48:29Z</time>
      </trkpt>
      <trkpt lat="48.73866" lon="1.77564">
        <ele>176.14489746094</ele>
        <time>2017-03-04T08:48:38Z</time>
      </trkpt>
      <trkpt lat="48.73876" lon="1.77548">
        <ele>178.18859863281</ele>
        <time>2017-03-04T08:48:45Z</time>
      </trkpt>
      <trkpt lat="48.73878" lon="1.77527">
        <ele>176.64477539062</ele>
        <time>2017-03-04T08:48:51Z</time>
      </trkpt>
      <trkpt lat="48.73884" lon="1.77508">
        <ele>173.30548095703</ele>
        <time>2017-03-04T08:49:06Z</time>
      </trkpt>
      <trkpt lat="48.73892" lon="1.7749">
        <ele>174.48553466797</ele>
        <time>2017-03-04T08:49:13Z</time>
      </trkpt>
      <trkpt lat="48.73906" lon="1.77497">
        <ele>156.49212646484</ele>
        <time>2017-03-04T08:51:38Z</time>
      </trkpt>
      <trkpt lat="48.7392" lon="1.77507">
        <ele>149.017578125</ele>
        <time>2017-03-04T08:51:46Z</time>
      </trkpt>
      <trkpt lat="48.73934" lon="1.7751">
        <ele>145.79711914062</ele>
        <time>2017-03-04T08:51:52Z</time>
      </trkpt>
      <trkpt lat="48.73947" lon="1.77515">
        <ele>140.25598144531</ele>
        <time>2017-03-04T08:52:01Z</time>
      </trkpt>
      <trkpt lat="48.73961" lon="1.77518">
        <ele>141.31500244141</ele>
        <time>2017-03-04T08:52:09Z</time>
      </trkpt>
      <trkpt lat="48.73975" lon="1.77513">
        <ele>145.05364990234</ele>
        <time>2017-03-04T08:52:19Z</time>
      </trkpt>
      <trkpt lat="48.7399" lon="1.77504">
        <ele>145.76928710938</ele>
        <time>2017-03-04T08:52:31Z</time>
      </trkpt>
      <trkpt lat="48.74004" lon="1.77494">
        <ele>149.59710693359</ele>
        <time>2017-03-04T08:52:38Z</time>
      </trkpt>
      <trkpt lat="48.74014" lon="1.77481">
        <ele>152.28100585938</ele>
        <time>2017-03-04T08:52:45Z</time>
      </trkpt>
      <trkpt lat="48.74026" lon="1.77466">
        <ele>150.423828125</ele>
        <time>2017-03-04T08:52:54Z</time>
      </trkpt>
      <trkpt lat="48.7404" lon="1.77457">
        <ele>149.34393310547</ele>
        <time>2017-03-04T08:53:00Z</time>
      </trkpt>
      <trkpt lat="48.74052" lon="1.77441">
        <ele>149.43469238281</ele>
        <time>2017-03-04T08:53:04Z</time>
      </trkpt>
      <trkpt lat="48.7406" lon="1.77415">
        <ele>151.68536376953</ele>
        <time>2017-03-04T08:53:12Z</time>
      </trkpt>
      <trkpt lat="48.74052" lon="1.77398">
        <ele>147.67138671875</ele>
        <time>2017-03-04T08:53:23Z</time>
      </trkpt>
      <trkpt lat="48.74062" lon="1.77384">
        <ele>144.61743164062</ele>
        <time>2017-03-04T08:53:31Z</time>
      </trkpt>
      <trkpt lat="48.74066" lon="1.77364">
        <ele>149.46728515625</ele>
        <time>2017-03-04T08:53:40Z</time>
      </trkpt>
      <trkpt lat="48.74076" lon="1.77346">
        <ele>149.97998046875</ele>
        <time>2017-03-04T08:53:46Z</time>
      </trkpt>
      <trkpt lat="48.74074" lon="1.77324">
        <ele>147.67889404297</ele>
        <time>2017-03-04T08:53:52Z</time>
      </trkpt>
      <trkpt lat="48.74085" lon="1.77309">
        <ele>154.5322265625</ele>
        <time>2017-03-04T08:54:02Z</time>
      </trkpt>
      <trkpt lat="48.74088" lon="1.77282">
        <ele>155.16876220703</ele>
        <time>2017-03-04T08:54:12Z</time>
      </trkpt>
      <trkpt lat="48.74094" lon="1.77303">
        <ele>154.36309814453</ele>
        <time>2017-03-04T08:54:50Z</time>
      </trkpt>
      <trkpt lat="48.74102" lon="1.77322">
        <ele>154.37060546875</ele>
        <time>2017-03-04T08:54:58Z</time>
      </trkpt>
      <trkpt lat="48.74113" lon="1.77337">
        <ele>153.74719238281</ele>
        <time>2017-03-04T08:55:07Z</time>
      </trkpt>
      <trkpt lat="48.74127" lon="1.77332">
        <ele>146.7001953125</ele>
        <time>2017-03-04T08:55:19Z</time>
      </trkpt>
      <trkpt lat="48.74139" lon="1.77321">
        <ele>150.66638183594</ele>
        <time>2017-03-04T08:55:31Z</time>
      </trkpt>
      <trkpt lat="48.74151" lon="1.77307">
        <ele>151.09484863281</ele>
        <time>2017-03-04T08:55:39Z</time>
      </trkpt>
      <trkpt lat="48.74163" lon="1.77298">
        <ele>150.82006835938</ele>
        <time>2017-03-04T08:55:47Z</time>
      </trkpt>
      <trkpt lat="48.74176" lon="1.77307">
        <ele>158.9228515625</ele>
        <time>2017-03-04T08:56:02Z</time>
      </trkpt>
      <trkpt lat="48.74189" lon="1.77309">
        <ele>149.86627197266</ele>
        <time>2017-03-04T08:56:24Z</time>
      </trkpt>
      <trkpt lat="48.74206" lon="1.77301">
        <ele>142.46948242188</ele>
        <time>2017-03-04T08:56:31Z</time>
      </trkpt>
      <trkpt lat="48.74222" lon="1.77295">
        <ele>150.57562255859</ele>
        <time>2017-03-04T08:56:39Z</time>
      </trkpt>
      <trkpt lat="48.74236" lon="1.77289">
        <ele>153.18090820312</ele>
        <time>2017-03-04T08:56:47Z</time>
      </trkpt>
      <trkpt lat="48.74248" lon="1.77275">
        <ele>155.18658447266</ele>
        <time>2017-03-04T08:56:56Z</time>
      </trkpt>
      <trkpt lat="48.7426" lon="1.77267">
        <ele>156.99365234375</ele>
        <time>2017-03-04T08:57:02Z</time>
      </trkpt>
      <trkpt lat="48.7427" lon="1.7725">
        <ele>165.23919677734</ele>
        <time>2017-03-04T08:57:16Z</time>
      </trkpt>
      <trkpt lat="48.74283" lon="1.77238">
        <ele>168.13409423828</ele>
        <time>2017-03-04T08:57:23Z</time>
      </trkpt>
      <trkpt lat="48.74293" lon="1.77223">
        <ele>165.82946777344</ele>
        <time>2017-03-04T08:57:32Z</time>
      </trkpt>
      <trkpt lat="48.743" lon="1.77203">
        <ele>164.7919921875</ele>
        <time>2017-03-04T08:57:39Z</time>
      </trkpt>
      <trkpt lat="48.74302" lon="1.77183">
        <ele>167.51635742188</ele>
        <time>2017-03-04T08:57:47Z</time>
      </trkpt>
      <trkpt lat="48.74303" lon="1.77161">
        <ele>167.80596923828</ele>
        <time>2017-03-04T08:57:52Z</time>
      </trkpt>
      <trkpt lat="48.74313" lon="1.77146">
        <ele>170.26318359375</ele>
        <time>2017-03-04T08:57:59Z</time>
      </trkpt>
      <trkpt lat="48.74316" lon="1.77125">
        <ele>177.81958007812</ele>
        <time>2017-03-04T08:58:11Z</time>
      </trkpt>
      <trkpt lat="48.7432" lon="1.77102">
        <ele>179.92169189453</ele>
        <time>2017-03-04T08:58:20Z</time>
      </trkpt>
      <trkpt lat="48.74323" lon="1.77081">
        <ele>178.52630615234</ele>
        <time>2017-03-04T08:58:29Z</time>
      </trkpt>
      <trkpt lat="48.74322" lon="1.7706">
        <ele>178.55682373047</ele>
        <time>2017-03-04T08:58:38Z</time>
      </trkpt>
      <trkpt lat="48.74326" lon="1.77037">
        <ele>173.69586181641</ele>
        <time>2017-03-04T08:58:45Z</time>
      </trkpt>
      <trkpt lat="48.74331" lon="1.77015">
        <ele>178.88610839844</ele>
        <time>2017-03-04T08:58:56Z</time>
      </trkpt>
      <trkpt lat="48.74332" lon="1.76993">
        <ele>174.96740722656</ele>
        <time>2017-03-04T08:59:04Z</time>
      </trkpt>
      <trkpt lat="48.74334" lon="1.76972">
        <ele>180.51599121094</ele>
        <time>2017-03-04T08:59:12Z</time>
      </trkpt>
      <trkpt lat="48.74337" lon="1.76948">
        <ele>180.73345947266</ele>
        <time>2017-03-04T08:59:21Z</time>
      </trkpt>
      <trkpt lat="48.74347" lon="1.76932">
        <ele>189.35321044922</ele>
        <time>2017-03-04T08:59:29Z</time>
      </trkpt>
      <trkpt lat="48.74356" lon="1.76917">
        <ele>191.83978271484</ele>
        <time>2017-03-04T08:59:34Z</time>
      </trkpt>
      <trkpt lat="48.74367" lon="1.76904">
        <ele>191.18212890625</ele>
        <time>2017-03-04T08:59:45Z</time>
      </trkpt>
      <trkpt lat="48.74376" lon="1.76889">
        <ele>189.31744384766</ele>
        <time>2017-03-04T08:59:58Z</time>
      </trkpt>
      <trkpt lat="48.74385" lon="1.76871">
        <ele>188.36566162109</ele>
        <time>2017-03-04T09:00:04Z</time>
      </trkpt>
      <trkpt lat="48.74392" lon="1.76854">
        <ele>191.53491210938</ele>
        <time>2017-03-04T09:00:09Z</time>
      </trkpt>
      <trkpt lat="48.74381" lon="1.76836">
        <ele>186.60778808594</ele>
        <time>2017-03-04T09:00:52Z</time>
      </trkpt>
      <trkpt lat="48.74369" lon="1.76826">
        <ele>177.99737548828</ele>
        <time>2017-03-04T09:01:01Z</time>
      </trkpt>
      <trkpt lat="48.74359" lon="1.7681">
        <ele>174.98748779297</ele>
        <time>2017-03-04T09:01:07Z</time>
      </trkpt>
      <trkpt lat="48.7435" lon="1.76794">
        <ele>174.28381347656</ele>
        <time>2017-03-04T09:01:10Z</time>
      </trkpt>
      <trkpt lat="48.74331" lon="1.76775">
        <ele>170.23034667969</ele>
        <time>2017-03-04T09:01:16Z</time>
      </trkpt>
      <trkpt lat="48.74318" lon="1.76762">
        <ele>165.42742919922</ele>
        <time>2017-03-04T09:01:29Z</time>
      </trkpt>
      <trkpt lat="48.74311" lon="1.76744">
        <ele>161.44982910156</ele>
        <time>2017-03-04T09:01:37Z</time>
      </trkpt>
      <trkpt lat="48.74319" lon="1.76728">
        <ele>151.23089599609</ele>
        <time>2017-03-04T09:02:04Z</time>
      </trkpt>
      <trkpt lat="48.74317" lon="1.76707">
        <ele>146.90814208984</ele>
        <time>2017-03-04T09:02:13Z</time>
      </trkpt>
      <trkpt lat="48.7432" lon="1.76685">
        <ele>151.16986083984</ele>
        <time>2017-03-04T09:02:20Z</time>
      </trkpt>
      <trkpt lat="48.74325" lon="1.76665">
        <ele>153.05310058594</ele>
        <time>2017-03-04T09:02:28Z</time>
      </trkpt>
      <trkpt lat="48.74332" lon="1.76647">
        <ele>153.17810058594</ele>
        <time>2017-03-04T09:02:41Z</time>
      </trkpt>
      <trkpt lat="48.74343" lon="1.76634">
        <ele>153.07409667969</ele>
        <time>2017-03-04T09:02:54Z</time>
      </trkpt>
      <trkpt lat="48.74355" lon="1.76624">
        <ele>155.93811035156</ele>
        <time>2017-03-04T09:03:01Z</time>
      </trkpt>
      <trkpt lat="48.74366" lon="1.76611">
        <ele>158.38214111328</ele>
        <time>2017-03-04T09:03:09Z</time>
      </trkpt>
      <trkpt lat="48.74372" lon="1.76591">
        <ele>158.54284667969</ele>
        <time>2017-03-04T09:03:21Z</time>
      </trkpt>
      <trkpt lat="48.74374" lon="1.7657">
        <ele>162.32153320312</ele>
        <time>2017-03-04T09:03:33Z</time>
      </trkpt>
      <trkpt lat="48.74374" lon="1.76548">
        <ele>160.17559814453</ele>
        <time>2017-03-04T09:03:45Z</time>
      </trkpt>
      <trkpt lat="48.74371" lon="1.76527">
        <ele>160.69091796875</ele>
        <time>2017-03-04T09:03:56Z</time>
      </trkpt>
      <trkpt lat="48.74369" lon="1.76506">
        <ele>158.15466308594</ele>
        <time>2017-03-04T09:04:05Z</time>
      </trkpt>
      <trkpt lat="48.74373" lon="1.76484">
        <ele>167.13806152344</ele>
        <time>2017-03-04T09:04:16Z</time>
      </trkpt>
      <trkpt lat="48.74377" lon="1.76461">
        <ele>166.19177246094</ele>
        <time>2017-03-04T09:05:49Z</time>
      </trkpt>
      <trkpt lat="48.74387" lon="1.76444">
        <ele>168.72448730469</ele>
        <time>2017-03-04T09:05:57Z</time>
      </trkpt>
      <trkpt lat="48.74399" lon="1.76434">
        <ele>169.07507324219</ele>
        <time>2017-03-04T09:06:08Z</time>
      </trkpt>
      <trkpt lat="48.74414" lon="1.76434">
        <ele>164.93524169922</ele>
        <time>2017-03-04T09:06:17Z</time>
      </trkpt>
      <trkpt lat="48.74428" lon="1.76436">
        <ele>163.10632324219</ele>
        <time>2017-03-04T09:06:24Z</time>
      </trkpt>
      <trkpt lat="48.74441" lon="1.76439">
        <ele>168.31292724609</ele>
        <time>2017-03-04T09:06:33Z</time>
      </trkpt>
      <trkpt lat="48.74456" lon="1.76446">
        <ele>169.74401855469</ele>
        <time>2017-03-04T09:06:41Z</time>
      </trkpt>
      <trkpt lat="48.7447" lon="1.76451">
        <ele>174.56829833984</ele>
        <time>2017-03-04T09:06:50Z</time>
      </trkpt>
      <trkpt lat="48.74493" lon="1.76461">
        <ele>171.87805175781</ele>
        <time>2017-03-04T09:06:57Z</time>
      </trkpt>
      <trkpt lat="48.74507" lon="1.76464">
        <ele>172.02581787109</ele>
        <time>2017-03-04T09:07:12Z</time>
      </trkpt>
      <trkpt lat="48.74522" lon="1.76467">
        <ele>171.67199707031</ele>
        <time>2017-03-04T09:07:29Z</time>
      </trkpt>
      <trkpt lat="48.74537" lon="1.7647">
        <ele>174.54553222656</ele>
        <time>2017-03-04T09:07:40Z</time>
      </trkpt>
      <trkpt lat="48.74551" lon="1.7647">
        <ele>170.984375</ele>
        <time>2017-03-04T09:07:48Z</time>
      </trkpt>
      <trkpt lat="48.74565" lon="1.76475">
        <ele>170.96740722656</ele>
        <time>2017-03-04T09:07:58Z</time>
      </trkpt>
      <trkpt lat="48.7458" lon="1.7648">
        <ele>170.77563476562</ele>
        <time>2017-03-04T09:08:09Z</time>
      </trkpt>
      <trkpt lat="48.74594" lon="1.76482">
        <ele>175.56341552734</ele>
        <time>2017-03-04T09:08:17Z</time>
      </trkpt>
      <trkpt lat="48.74606" lon="1.76492">
        <ele>173.7900390625</ele>
        <time>2017-03-04T09:08:24Z</time>
      </trkpt>
      <trkpt lat="48.74626" lon="1.76493">
        <ele>177.73565673828</ele>
        <time>2017-03-04T09:08:31Z</time>
      </trkpt>
      <trkpt lat="48.74645" lon="1.7647">
        <ele>181.75427246094</ele>
        <time>2017-03-04T09:09:04Z</time>
      </trkpt>
      <trkpt lat="48.74657" lon="1.76462">
        <ele>184.69665527344</ele>
        <time>2017-03-04T09:09:10Z</time>
      </trkpt>
      <trkpt lat="48.74664" lon="1.76443">
        <ele>184.80645751953</ele>
        <time>2017-03-04T09:09:19Z</time>
      </trkpt>
      <trkpt lat="48.74672" lon="1.76421">
        <ele>184.96752929688</ele>
        <time>2017-03-04T09:09:27Z</time>
      </trkpt>
      <trkpt lat="48.74681" lon="1.76402">
        <ele>192.58178710938</ele>
        <time>2017-03-04T09:09:32Z</time>
      </trkpt>
      <trkpt lat="48.74688" lon="1.76384">
        <ele>185.74963378906</ele>
        <time>2017-03-04T09:09:38Z</time>
      </trkpt>
      <trkpt lat="48.74701" lon="1.76375">
        <ele>183.19274902344</ele>
        <time>2017-03-04T09:09:48Z</time>
      </trkpt>
      <trkpt lat="48.74713" lon="1.76365">
        <ele>187.03765869141</ele>
        <time>2017-03-04T09:09:58Z</time>
      </trkpt>
      <trkpt lat="48.74726" lon="1.76347">
        <ele>192.19250488281</ele>
        <time>2017-03-04T09:10:05Z</time>
      </trkpt>
      <trkpt lat="48.74737" lon="1.76332">
        <ele>186.46899414062</ele>
        <time>2017-03-04T09:10:14Z</time>
      </trkpt>
      <trkpt lat="48.74747" lon="1.76316">
        <ele>188.50750732422</ele>
        <time>2017-03-04T09:10:20Z</time>
      </trkpt>
      <trkpt lat="48.74755" lon="1.76298">
        <ele>186.68475341797</ele>
        <time>2017-03-04T09:10:27Z</time>
      </trkpt>
      <trkpt lat="48.74765" lon="1.76283">
        <ele>183.00549316406</ele>
        <time>2017-03-04T09:10:41Z</time>
      </trkpt>
      <trkpt lat="48.74777" lon="1.76267">
        <ele>178.66253662109</ele>
        <time>2017-03-04T09:10:50Z</time>
      </trkpt>
      <trkpt lat="48.74789" lon="1.76254">
        <ele>179.29895019531</ele>
        <time>2017-03-04T09:10:59Z</time>
      </trkpt>
      <trkpt lat="48.74801" lon="1.76244">
        <ele>184.27099609375</ele>
        <time>2017-03-04T09:11:05Z</time>
      </trkpt>
      <trkpt lat="48.74813" lon="1.76231">
        <ele>184.06140136719</ele>
        <time>2017-03-04T09:11:15Z</time>
      </trkpt>
      <trkpt lat="48.74824" lon="1.76216">
        <ele>184.90014648438</ele>
        <time>2017-03-04T09:11:24Z</time>
      </trkpt>
      <trkpt lat="48.7483" lon="1.76197">
        <ele>185.46612548828</ele>
        <time>2017-03-04T09:11:32Z</time>
      </trkpt>
      <trkpt lat="48.74845" lon="1.76193">
        <ele>189.18078613281</ele>
        <time>2017-03-04T09:11:38Z</time>
      </trkpt>
      <trkpt lat="48.74857" lon="1.76182">
        <ele>187.99328613281</ele>
        <time>2017-03-04T09:11:49Z</time>
      </trkpt>
      <trkpt lat="48.7487" lon="1.76171">
        <ele>191.99768066406</ele>
        <time>2017-03-04T09:11:58Z</time>
      </trkpt>
      <trkpt lat="48.74884" lon="1.76167">
        <ele>191.95153808594</ele>
        <time>2017-03-04T09:12:07Z</time>
      </trkpt>
      <trkpt lat="48.74897" lon="1.7616">
        <ele>192.95092773438</ele>
        <time>2017-03-04T09:12:15Z</time>
      </trkpt>
      <trkpt lat="48.74911" lon="1.76161">
        <ele>192.13372802734</ele>
        <time>2017-03-04T09:12:22Z</time>
      </trkpt>
      <trkpt lat="48.74926" lon="1.76152">
        <ele>191.57312011719</ele>
        <time>2017-03-04T09:12:36Z</time>
      </trkpt>
      <trkpt lat="48.74941" lon="1.7615">
        <ele>194.99816894531</ele>
        <time>2017-03-04T09:12:42Z</time>
      </trkpt>
      <trkpt lat="48.74953" lon="1.76136">
        <ele>193.84564208984</ele>
        <time>2017-03-04T09:12:50Z</time>
      </trkpt>
      <trkpt lat="48.74965" lon="1.76126">
        <ele>192.63171386719</ele>
        <time>2017-03-04T09:12:58Z</time>
      </trkpt>
      <trkpt lat="48.74976" lon="1.7611">
        <ele>191.52038574219</ele>
        <time>2017-03-04T09:13:08Z</time>
      </trkpt>
      <trkpt lat="48.74981" lon="1.76089">
        <ele>195.56182861328</ele>
        <time>2017-03-04T09:13:16Z</time>
      </trkpt>
      <trkpt lat="48.74983" lon="1.76068">
        <ele>198.71722412109</ele>
        <time>2017-03-04T09:13:26Z</time>
      </trkpt>
      <trkpt lat="48.74987" lon="1.76045">
        <ele>198.86492919922</ele>
        <time>2017-03-04T09:13:35Z</time>
      </trkpt>
      <trkpt lat="48.74993" lon="1.76027">
        <ele>202.14178466797</ele>
        <time>2017-03-04T09:13:39Z</time>
      </trkpt>
      <trkpt lat="48.74997" lon="1.76002">
        <ele>203.95385742188</ele>
        <time>2017-03-04T09:13:45Z</time>
      </trkpt>
      <trkpt lat="48.75001" lon="1.7598">
        <ele>206.19348144531</ele>
        <time>2017-03-04T09:13:50Z</time>
      </trkpt>
      <trkpt lat="48.75002" lon="1.75959">
        <ele>207.84826660156</ele>
        <time>2017-03-04T09:14:04Z</time>
      </trkpt>
      <trkpt lat="48.75006" lon="1.75939">
        <ele>207.37005615234</ele>
        <time>2017-03-04T09:14:14Z</time>
      </trkpt>
      <trkpt lat="48.7502" lon="1.7593">
        <ele>196.42340087891</ele>
        <time>2017-03-04T09:14:23Z</time>
      </trkpt>
      <trkpt lat="48.75028" lon="1.75905">
        <ele>192.63293457031</ele>
        <time>2017-03-04T09:14:32Z</time>
      </trkpt>
      <trkpt lat="48.75034" lon="1.75885">
        <ele>192.10290527344</ele>
        <time>2017-03-04T09:14:35Z</time>
      </trkpt>
      <trkpt lat="48.75043" lon="1.75869">
        <ele>200.73132324219</ele>
        <time>2017-03-04T09:14:50Z</time>
      </trkpt>
      <trkpt lat="48.75046" lon="1.75846">
        <ele>199.64007568359</ele>
        <time>2017-03-04T09:14:59Z</time>
      </trkpt>
      <trkpt lat="48.75054" lon="1.75829">
        <ele>195.4189453125</ele>
        <time>2017-03-04T09:15:09Z</time>
      </trkpt>
      <trkpt lat="48.75059" lon="1.75808">
        <ele>194.15954589844</ele>
        <time>2017-03-04T09:15:16Z</time>
      </trkpt>
      <trkpt lat="48.75056" lon="1.75782">
        <ele>193.87890625</ele>
        <time>2017-03-04T09:15:21Z</time>
      </trkpt>
      <trkpt lat="48.75049" lon="1.75764">
        <ele>195.72570800781</ele>
        <time>2017-03-04T09:15:28Z</time>
      </trkpt>
      <trkpt lat="48.75048" lon="1.75743">
        <ele>172.55908203125</ele>
        <time>2017-03-04T09:21:35Z</time>
      </trkpt>
      <trkpt lat="48.75045" lon="1.75723">
        <ele>165.44995117188</ele>
        <time>2017-03-04T09:21:41Z</time>
      </trkpt>
      <trkpt lat="48.75044" lon="1.75699">
        <ele>157.46160888672</ele>
        <time>2017-03-04T09:21:49Z</time>
      </trkpt>
      <trkpt lat="48.75039" lon="1.75679">
        <ele>156.86181640625</ele>
        <time>2017-03-04T09:21:52Z</time>
      </trkpt>
      <trkpt lat="48.75034" lon="1.75657">
        <ele>156.51983642578</ele>
        <time>2017-03-04T09:21:58Z</time>
      </trkpt>
      <trkpt lat="48.7503" lon="1.75627">
        <ele>156.75305175781</ele>
        <time>2017-03-04T09:22:04Z</time>
      </trkpt>
      <trkpt lat="48.75025" lon="1.75608">
        <ele>163.63256835938</ele>
        <time>2017-03-04T09:22:10Z</time>
      </trkpt>
      <trkpt lat="48.75024" lon="1.75584">
        <ele>165.96398925781</ele>
        <time>2017-03-04T09:22:19Z</time>
      </trkpt>
      <trkpt lat="48.75021" lon="1.75564">
        <ele>167.94555664062</ele>
        <time>2017-03-04T09:22:29Z</time>
      </trkpt>
      <trkpt lat="48.75021" lon="1.75542">
        <ele>166.53759765625</ele>
        <time>2017-03-04T09:22:39Z</time>
      </trkpt>
      <trkpt lat="48.75017" lon="1.75523">
        <ele>169.75805664062</ele>
        <time>2017-03-04T09:22:48Z</time>
      </trkpt>
      <trkpt lat="48.75012" lon="1.75501">
        <ele>171.6435546875</ele>
        <time>2017-03-04T09:23:00Z</time>
      </trkpt>
      <trkpt lat="48.7501" lon="1.75479">
        <ele>172.93310546875</ele>
        <time>2017-03-04T09:23:11Z</time>
      </trkpt>
      <trkpt lat="48.7501" lon="1.75457">
        <ele>167.18670654297</ele>
        <time>2017-03-04T09:23:21Z</time>
      </trkpt>
      <trkpt lat="48.75005" lon="1.75435">
        <ele>170.11975097656</ele>
        <time>2017-03-04T09:23:30Z</time>
      </trkpt>
      <trkpt lat="48.75002" lon="1.75415">
        <ele>168.96588134766</ele>
        <time>2017-03-04T09:23:38Z</time>
      </trkpt>
      <trkpt lat="48.75003" lon="1.75392">
        <ele>169.66821289062</ele>
        <time>2017-03-04T09:23:46Z</time>
      </trkpt>
      <trkpt lat="48.75005" lon="1.75372">
        <ele>174.10290527344</ele>
        <time>2017-03-04T09:23:55Z</time>
      </trkpt>
      <trkpt lat="48.75008" lon="1.7535">
        <ele>170.37762451172</ele>
        <time>2017-03-04T09:24:05Z</time>
      </trkpt>
      <trkpt lat="48.75003" lon="1.7533">
        <ele>172.79693603516</ele>
        <time>2017-03-04T09:24:12Z</time>
      </trkpt>
      <trkpt lat="48.75001" lon="1.75309">
        <ele>170.19445800781</ele>
        <time>2017-03-04T09:24:22Z</time>
      </trkpt>
      <trkpt lat="48.75001" lon="1.75287">
        <ele>169.69732666016</ele>
        <time>2017-03-04T09:24:32Z</time>
      </trkpt>
      <trkpt lat="48.75002" lon="1.75266">
        <ele>167.27062988281</ele>
        <time>2017-03-04T09:24:43Z</time>
      </trkpt>
      <trkpt lat="48.74999" lon="1.75245">
        <ele>168.87469482422</ele>
        <time>2017-03-04T09:24:53Z</time>
      </trkpt>
      <trkpt lat="48.74999" lon="1.75224">
        <ele>173.41839599609</ele>
        <time>2017-03-04T09:25:01Z</time>
      </trkpt>
      <trkpt lat="48.75" lon="1.75203">
        <ele>170.35583496094</ele>
        <time>2017-03-04T09:25:12Z</time>
      </trkpt>
      <trkpt lat="48.75004" lon="1.75182">
        <ele>171.91131591797</ele>
        <time>2017-03-04T09:25:21Z</time>
      </trkpt>
      <trkpt lat="48.7501" lon="1.75154">
        <ele>168.32836914062</ele>
        <time>2017-03-04T09:25:31Z</time>
      </trkpt>
      <trkpt lat="48.75018" lon="1.7513">
        <ele>166.02984619141</ele>
        <time>2017-03-04T09:25:34Z</time>
      </trkpt>
      <trkpt lat="48.75026" lon="1.75114">
        <ele>172.40277099609</ele>
        <time>2017-03-04T09:25:42Z</time>
      </trkpt>
      <trkpt lat="48.75033" lon="1.75095">
        <ele>174.81726074219</ele>
        <time>2017-03-04T09:25:51Z</time>
      </trkpt>
      <trkpt lat="48.75045" lon="1.75082">
        <ele>177.689453125</ele>
        <time>2017-03-04T09:25:58Z</time>
      </trkpt>
      <trkpt lat="48.75059" lon="1.75071">
        <ele>178.69970703125</ele>
        <time>2017-03-04T09:26:02Z</time>
      </trkpt>
      <trkpt lat="48.75068" lon="1.7505">
        <ele>176.81536865234</ele>
        <time>2017-03-04T09:26:09Z</time>
      </trkpt>
      <trkpt lat="48.75068" lon="1.75029">
        <ele>178.80322265625</ele>
        <time>2017-03-04T09:26:15Z</time>
      </trkpt>
      <trkpt lat="48.75078" lon="1.75014">
        <ele>172.10925292969</ele>
        <time>2017-03-04T09:26:28Z</time>
      </trkpt>
      <trkpt lat="48.75095" lon="1.74991">
        <ele>170.99353027344</ele>
        <time>2017-03-04T09:26:32Z</time>
      </trkpt>
      <trkpt lat="48.75108" lon="1.7498">
        <ele>177.10131835938</ele>
        <time>2017-03-04T09:26:52Z</time>
      </trkpt>
      <trkpt lat="48.75122" lon="1.74981">
        <ele>178.66143798828</ele>
        <time>2017-03-04T09:26:57Z</time>
      </trkpt>
      <trkpt lat="48.75136" lon="1.74975">
        <ele>184.21838378906</ele>
        <time>2017-03-04T09:27:09Z</time>
      </trkpt>
      <trkpt lat="48.75151" lon="1.74972">
        <ele>182.62518310547</ele>
        <time>2017-03-04T09:27:14Z</time>
      </trkpt>
      <trkpt lat="48.75164" lon="1.7497">
        <ele>180.046875</ele>
        <time>2017-03-04T09:27:20Z</time>
      </trkpt>
      <trkpt lat="48.75178" lon="1.74964">
        <ele>172.10235595703</ele>
        <time>2017-03-04T09:27:28Z</time>
      </trkpt>
      <trkpt lat="48.75188" lon="1.74946">
        <ele>176.04736328125</ele>
        <time>2017-03-04T09:27:37Z</time>
      </trkpt>
      <trkpt lat="48.752" lon="1.74938">
        <ele>181.32257080078</ele>
        <time>2017-03-04T09:27:44Z</time>
      </trkpt>
      <trkpt lat="48.75211" lon="1.74923">
        <ele>180.04870605469</ele>
        <time>2017-03-04T09:27:52Z</time>
      </trkpt>
      <trkpt lat="48.75225" lon="1.74917">
        <ele>184.68426513672</ele>
        <time>2017-03-04T09:28:02Z</time>
      </trkpt>
      <trkpt lat="48.75235" lon="1.74903">
        <ele>186.89538574219</ele>
        <time>2017-03-04T09:28:11Z</time>
      </trkpt>
      <trkpt lat="48.75248" lon="1.74894">
        <ele>191.60607910156</ele>
        <time>2017-03-04T09:28:18Z</time>
      </trkpt>
      <trkpt lat="48.75267" lon="1.74866">
        <ele>179.55139160156</ele>
        <time>2017-03-04T09:28:28Z</time>
      </trkpt>
      <trkpt lat="48.75276" lon="1.74845">
        <ele>183.58941650391</ele>
        <time>2017-03-04T09:28:34Z</time>
      </trkpt>
      <trkpt lat="48.75287" lon="1.74831">
        <ele>181.107421875</ele>
        <time>2017-03-04T09:28:45Z</time>
      </trkpt>
      <trkpt lat="48.75287" lon="1.74807">
        <ele>181.71771240234</ele>
        <time>2017-03-04T09:28:51Z</time>
      </trkpt>
      <trkpt lat="48.7529" lon="1.74784">
        <ele>181.73193359375</ele>
        <time>2017-03-04T09:28:59Z</time>
      </trkpt>
      <trkpt lat="48.75299" lon="1.74768">
        <ele>185.95697021484</ele>
        <time>2017-03-04T09:29:11Z</time>
      </trkpt>
      <trkpt lat="48.7531" lon="1.74751">
        <ele>179.61437988281</ele>
        <time>2017-03-04T09:29:18Z</time>
      </trkpt>
      <trkpt lat="48.75319" lon="1.74727">
        <ele>183.16619873047</ele>
        <time>2017-03-04T09:29:30Z</time>
      </trkpt>
      <trkpt lat="48.75324" lon="1.74704">
        <ele>182.64868164062</ele>
        <time>2017-03-04T09:29:34Z</time>
      </trkpt>
      <trkpt lat="48.75331" lon="1.74685">
        <ele>188.14971923828</ele>
        <time>2017-03-04T09:29:48Z</time>
      </trkpt>
      <trkpt lat="48.75343" lon="1.74674">
        <ele>183.93310546875</ele>
        <time>2017-03-04T09:30:01Z</time>
      </trkpt>
      <trkpt lat="48.75356" lon="1.74664">
        <ele>180.92657470703</ele>
        <time>2017-03-04T09:30:11Z</time>
      </trkpt>
      <trkpt lat="48.75368" lon="1.74655">
        <ele>181.10491943359</ele>
        <time>2017-03-04T09:30:16Z</time>
      </trkpt>
      <trkpt lat="48.75382" lon="1.74647">
        <ele>185.69787597656</ele>
        <time>2017-03-04T09:30:23Z</time>
      </trkpt>
      <trkpt lat="48.75397" lon="1.74647">
        <ele>182.66033935547</ele>
        <time>2017-03-04T09:30:29Z</time>
      </trkpt>
      <trkpt lat="48.75414" lon="1.74633">
        <ele>183.08709716797</ele>
        <time>2017-03-04T09:33:13Z</time>
      </trkpt>
      <trkpt lat="48.75438" lon="1.74591">
        <ele>187.916015625</ele>
        <time>2017-03-04T09:33:20Z</time>
      </trkpt>
      <trkpt lat="48.75448" lon="1.74574">
        <ele>182.7001953125</ele>
        <time>2017-03-04T09:33:33Z</time>
      </trkpt>
      <trkpt lat="48.75461" lon="1.74567">
        <ele>182.14129638672</ele>
        <time>2017-03-04T09:33:43Z</time>
      </trkpt>
      <trkpt lat="48.75465" lon="1.74547">
        <ele>185.75323486328</ele>
        <time>2017-03-04T09:33:55Z</time>
      </trkpt>
      <trkpt lat="48.75475" lon="1.74526">
        <ele>189.71234130859</ele>
        <time>2017-03-04T09:34:03Z</time>
      </trkpt>
      <trkpt lat="48.7548" lon="1.74506">
        <ele>188.85327148438</ele>
        <time>2017-03-04T09:34:15Z</time>
      </trkpt>
      <trkpt lat="48.75474" lon="1.74487">
        <ele>181.17822265625</ele>
        <time>2017-03-04T09:34:24Z</time>
      </trkpt>
      <trkpt lat="48.75471" lon="1.74466">
        <ele>179.60784912109</ele>
        <time>2017-03-04T09:34:34Z</time>
      </trkpt>
      <trkpt lat="48.75475" lon="1.74446">
        <ele>172.24047851562</ele>
        <time>2017-03-04T09:34:43Z</time>
      </trkpt>
      <trkpt lat="48.75476" lon="1.74421">
        <ele>168.42083740234</ele>
        <time>2017-03-04T09:34:53Z</time>
      </trkpt>
      <trkpt lat="48.75482" lon="1.74402">
        <ele>162.26782226562</ele>
        <time>2017-03-04T09:34:59Z</time>
      </trkpt>
      <trkpt lat="48.7549" lon="1.74384">
        <ele>163.77380371094</ele>
        <time>2017-03-04T09:35:03Z</time>
      </trkpt>
      <trkpt lat="48.75484" lon="1.74366">
        <ele>160.98754882812</ele>
        <time>2017-03-04T09:35:11Z</time>
      </trkpt>
      <trkpt lat="48.75477" lon="1.74347">
        <ele>156.56658935547</ele>
        <time>2017-03-04T09:35:17Z</time>
      </trkpt>
      <trkpt lat="48.75472" lon="1.74327">
        <ele>154.07757568359</ele>
        <time>2017-03-04T09:35:25Z</time>
      </trkpt>
      <trkpt lat="48.75467" lon="1.74306">
        <ele>152.91461181641</ele>
        <time>2017-03-04T09:35:31Z</time>
      </trkpt>
      <trkpt lat="48.7547" lon="1.74286">
        <ele>146.37817382812</ele>
        <time>2017-03-04T09:35:45Z</time>
      </trkpt>
      <trkpt lat="48.75477" lon="1.74264">
        <ele>145.95935058594</ele>
        <time>2017-03-04T09:35:54Z</time>
      </trkpt>
      <trkpt lat="48.7547" lon="1.74239">
        <ele>145.7451171875</ele>
        <time>2017-03-04T09:35:58Z</time>
      </trkpt>
      <trkpt lat="48.75475" lon="1.74219">
        <ele>142.71923828125</ele>
        <time>2017-03-04T09:36:13Z</time>
      </trkpt>
      <trkpt lat="48.75483" lon="1.74202">
        <ele>144.19464111328</ele>
        <time>2017-03-04T09:36:21Z</time>
      </trkpt>
      <trkpt lat="48.75492" lon="1.74184">
        <ele>142.53131103516</ele>
        <time>2017-03-04T09:36:26Z</time>
      </trkpt>
      <trkpt lat="48.75486" lon="1.74165">
        <ele>140.32275390625</ele>
        <time>2017-03-04T09:36:37Z</time>
      </trkpt>
      <trkpt lat="48.7548" lon="1.74146">
        <ele>139.14855957031</ele>
        <time>2017-03-04T09:36:47Z</time>
      </trkpt>
      <trkpt lat="48.75493" lon="1.74132">
        <ele>138.98016357422</ele>
        <time>2017-03-04T09:37:32Z</time>
      </trkpt>
      <trkpt lat="48.755" lon="1.74114">
        <ele>142.90924072266</ele>
        <time>2017-03-04T09:37:37Z</time>
      </trkpt>
      <trkpt lat="48.75509" lon="1.74093">
        <ele>136.73388671875</ele>
        <time>2017-03-04T09:37:44Z</time>
      </trkpt>
      <trkpt lat="48.7552" lon="1.74068">
        <ele>130.64855957031</ele>
        <time>2017-03-04T09:37:48Z</time>
      </trkpt>
      <trkpt lat="48.75522" lon="1.74044">
        <ele>125.88354492188</ele>
        <time>2017-03-04T09:37:54Z</time>
      </trkpt>
      <trkpt lat="48.75524" lon="1.74013">
        <ele>125.01629638672</ele>
        <time>2017-03-04T09:38:01Z</time>
      </trkpt>
      <trkpt lat="48.7551" lon="1.74007">
        <ele>119.15606689453</ele>
        <time>2017-03-04T09:38:24Z</time>
      </trkpt>
      <trkpt lat="48.75524" lon="1.73999">
        <ele>121.50720214844</ele>
        <time>2017-03-04T09:38:42Z</time>
      </trkpt>
      <trkpt lat="48.75537" lon="1.73986">
        <ele>127.42492675781</ele>
        <time>2017-03-04T09:38:48Z</time>
      </trkpt>
      <trkpt lat="48.75552" lon="1.73982">
        <ele>128.00732421875</ele>
        <time>2017-03-04T09:38:54Z</time>
      </trkpt>
      <trkpt lat="48.75565" lon="1.73969">
        <ele>128.41119384766</ele>
        <time>2017-03-04T09:39:07Z</time>
      </trkpt>
      <trkpt lat="48.75579" lon="1.73968">
        <ele>130.92779541016</ele>
        <time>2017-03-04T09:39:15Z</time>
      </trkpt>
      <trkpt lat="48.7559" lon="1.73955">
        <ele>138.81079101562</ele>
        <time>2017-03-04T09:39:30Z</time>
      </trkpt>
      <trkpt lat="48.75605" lon="1.73947">
        <ele>144.17718505859</ele>
        <time>2017-03-04T09:39:43Z</time>
      </trkpt>
      <trkpt lat="48.75619" lon="1.73942">
        <ele>140.12475585938</ele>
        <time>2017-03-04T09:39:48Z</time>
      </trkpt>
      <trkpt lat="48.75633" lon="1.7394">
        <ele>139.10168457031</ele>
        <time>2017-03-04T09:39:53Z</time>
      </trkpt>
      <trkpt lat="48.75647" lon="1.73935">
        <ele>137.89794921875</ele>
        <time>2017-03-04T09:40:02Z</time>
      </trkpt>
      <trkpt lat="48.75661" lon="1.73933">
        <ele>143.62878417969</ele>
        <time>2017-03-04T09:40:08Z</time>
      </trkpt>
      <trkpt lat="48.75674" lon="1.73927">
        <ele>140.90270996094</ele>
        <time>2017-03-04T09:40:14Z</time>
      </trkpt>
      <trkpt lat="48.75688" lon="1.7392">
        <ele>145.21081542969</ele>
        <time>2017-03-04T09:40:24Z</time>
      </trkpt>
      <trkpt lat="48.75696" lon="1.73937">
        <ele>149.28631591797</ele>
        <time>2017-03-04T09:40:56Z</time>
      </trkpt>
      <trkpt lat="48.75709" lon="1.73946">
        <ele>152.603515625</ele>
        <time>2017-03-04T09:41:08Z</time>
      </trkpt>
      <trkpt lat="48.75714" lon="1.73967">
        <ele>152.52209472656</ele>
        <time>2017-03-04T09:41:17Z</time>
      </trkpt>
      <trkpt lat="48.75726" lon="1.73977">
        <ele>152.31481933594</ele>
        <time>2017-03-04T09:41:29Z</time>
      </trkpt>
      <trkpt lat="48.7574" lon="1.73979">
        <ele>148.69671630859</ele>
        <time>2017-03-04T09:41:42Z</time>
      </trkpt>
      <trkpt lat="48.75755" lon="1.73986">
        <ele>148.30816650391</ele>
        <time>2017-03-04T09:41:52Z</time>
      </trkpt>
      <trkpt lat="48.75769" lon="1.73991">
        <ele>146.97491455078</ele>
        <time>2017-03-04T09:42:00Z</time>
      </trkpt>
      <trkpt lat="48.75783" lon="1.73992">
        <ele>153.35858154297</ele>
        <time>2017-03-04T09:42:14Z</time>
      </trkpt>
      <trkpt lat="48.75803" lon="1.73983">
        <ele>151.78594970703</ele>
        <time>2017-03-04T09:42:23Z</time>
      </trkpt>
      <trkpt lat="48.75817" lon="1.73976">
        <ele>150.74938964844</ele>
        <time>2017-03-04T09:42:30Z</time>
      </trkpt>
      <trkpt lat="48.75831" lon="1.73969">
        <ele>154.85803222656</ele>
        <time>2017-03-04T09:42:38Z</time>
      </trkpt>
      <trkpt lat="48.75847" lon="1.73969">
        <ele>160.36083984375</ele>
        <time>2017-03-04T09:42:46Z</time>
      </trkpt>
      <trkpt lat="48.7586" lon="1.73969">
        <ele>157.74645996094</ele>
        <time>2017-03-04T09:42:53Z</time>
      </trkpt>
      <trkpt lat="48.75872" lon="1.73959">
        <ele>164.18426513672</ele>
        <time>2017-03-04T09:43:02Z</time>
      </trkpt>
      <trkpt lat="48.75876" lon="1.73939">
        <ele>165.62268066406</ele>
        <time>2017-03-04T09:43:16Z</time>
      </trkpt>
      <trkpt lat="48.75888" lon="1.73922">
        <ele>159.53326416016</ele>
        <time>2017-03-04T09:43:29Z</time>
      </trkpt>
      <trkpt lat="48.75903" lon="1.73924">
        <ele>160.76147460938</ele>
        <time>2017-03-04T09:43:43Z</time>
      </trkpt>
      <trkpt lat="48.75918" lon="1.73929">
        <ele>168.16394042969</ele>
        <time>2017-03-04T09:43:51Z</time>
      </trkpt>
      <trkpt lat="48.75931" lon="1.73928">
        <ele>165.85314941406</ele>
        <time>2017-03-04T09:44:00Z</time>
      </trkpt>
      <trkpt lat="48.75946" lon="1.7393">
        <ele>164.36889648438</ele>
        <time>2017-03-04T09:44:09Z</time>
      </trkpt>
      <trkpt lat="48.75953" lon="1.73913">
        <ele>157.02185058594</ele>
        <time>2017-03-04T09:44:53Z</time>
      </trkpt>
      <trkpt lat="48.75959" lon="1.73893">
        <ele>152.85748291016</ele>
        <time>2017-03-04T09:45:06Z</time>
      </trkpt>
      <trkpt lat="48.75954" lon="1.73872">
        <ele>146.79321289062</ele>
        <time>2017-03-04T09:45:49Z</time>
      </trkpt>
      <trkpt lat="48.75943" lon="1.73857">
        <ele>140.55517578125</ele>
        <time>2017-03-04T09:45:55Z</time>
      </trkpt>
      <trkpt lat="48.75928" lon="1.73848">
        <ele>137.44812011719</ele>
        <time>2017-03-04T09:46:03Z</time>
      </trkpt>
      <trkpt lat="48.75916" lon="1.73836">
        <ele>137.720703125</ele>
        <time>2017-03-04T09:46:20Z</time>
      </trkpt>
      <trkpt lat="48.75904" lon="1.73823">
        <ele>136.62341308594</ele>
        <time>2017-03-04T09:46:27Z</time>
      </trkpt>
      <trkpt lat="48.75891" lon="1.73813">
        <ele>139.31744384766</ele>
        <time>2017-03-04T09:46:36Z</time>
      </trkpt>
      <trkpt lat="48.7588" lon="1.73801">
        <ele>140.35870361328</ele>
        <time>2017-03-04T09:46:44Z</time>
      </trkpt>
      <trkpt lat="48.75866" lon="1.73807">
        <ele>148.93328857422</ele>
        <time>2017-03-04T09:47:36Z</time>
      </trkpt>
      <trkpt lat="48.75853" lon="1.73821">
        <ele>156.10955810547</ele>
        <time>2017-03-04T09:47:45Z</time>
      </trkpt>
      <trkpt lat="48.75838" lon="1.73828">
        <ele>153.232421875</ele>
        <time>2017-03-04T09:47:50Z</time>
      </trkpt>
      <trkpt lat="48.75829" lon="1.73845">
        <ele>151.49688720703</ele>
        <time>2017-03-04T09:47:56Z</time>
      </trkpt>
      <trkpt lat="48.75816" lon="1.73854">
        <ele>154.20526123047</ele>
        <time>2017-03-04T09:48:03Z</time>
      </trkpt>
      <trkpt lat="48.75802" lon="1.73846">
        <ele>151.66101074219</ele>
        <time>2017-03-04T09:48:14Z</time>
      </trkpt>
      <trkpt lat="48.75788" lon="1.73838">
        <ele>148.34655761719</ele>
        <time>2017-03-04T09:48:20Z</time>
      </trkpt>
      <trkpt lat="48.75776" lon="1.73848">
        <ele>145.59777832031</ele>
        <time>2017-03-04T09:48:28Z</time>
      </trkpt>
      <trkpt lat="48.75763" lon="1.7384">
        <ele>141.64874267578</ele>
        <time>2017-03-04T09:48:49Z</time>
      </trkpt>
      <trkpt lat="48.7575" lon="1.73829">
        <ele>138.58508300781</ele>
        <time>2017-03-04T09:49:01Z</time>
      </trkpt>
      <trkpt lat="48.75736" lon="1.73822">
        <ele>142.64331054688</ele>
        <time>2017-03-04T09:49:16Z</time>
      </trkpt>
      <trkpt lat="48.7572" lon="1.73818">
        <ele>142.52270507812</ele>
        <time>2017-03-04T09:49:39Z</time>
      </trkpt>
      <trkpt lat="48.75706" lon="1.73819">
        <ele>142.07763671875</ele>
        <time>2017-03-04T09:49:45Z</time>
      </trkpt>
      <trkpt lat="48.75692" lon="1.73818">
        <ele>141.05285644531</ele>
        <time>2017-03-04T09:49:51Z</time>
      </trkpt>
      <trkpt lat="48.75678" lon="1.73811">
        <ele>146.53247070312</ele>
        <time>2017-03-04T09:50:01Z</time>
      </trkpt>
      <trkpt lat="48.75664" lon="1.73809">
        <ele>147.10827636719</ele>
        <time>2017-03-04T09:50:11Z</time>
      </trkpt>
      <trkpt lat="48.75652" lon="1.73822">
        <ele>141.93591308594</ele>
        <time>2017-03-04T09:53:22Z</time>
      </trkpt>
      <trkpt lat="48.75661" lon="1.73805">
        <ele>143.97619628906</ele>
        <time>2017-03-04T09:55:06Z</time>
      </trkpt>
      <trkpt lat="48.7567" lon="1.73787">
        <ele>136.88189697266</ele>
        <time>2017-03-04T09:55:15Z</time>
      </trkpt>
      <trkpt lat="48.75678" lon="1.7377">
        <ele>135.60864257812</ele>
        <time>2017-03-04T09:55:22Z</time>
      </trkpt>
      <trkpt lat="48.75672" lon="1.73751">
        <ele>132.27307128906</ele>
        <time>2017-03-04T09:55:38Z</time>
      </trkpt>
      <trkpt lat="48.75663" lon="1.73734">
        <ele>127.05206298828</ele>
        <time>2017-03-04T09:55:53Z</time>
      </trkpt>
      <trkpt lat="48.75664" lon="1.73713">
        <ele>124.48266601562</ele>
        <time>2017-03-04T09:56:09Z</time>
      </trkpt>
      <trkpt lat="48.75663" lon="1.7369">
        <ele>123.27484130859</ele>
        <time>2017-03-04T09:56:23Z</time>
      </trkpt>
      <trkpt lat="48.75666" lon="1.73668">
        <ele>124.99670410156</ele>
        <time>2017-03-04T09:56:30Z</time>
      </trkpt>
      <trkpt lat="48.75669" lon="1.73648">
        <ele>126.73522949219</ele>
        <time>2017-03-04T09:56:41Z</time>
      </trkpt>
      <trkpt lat="48.75662" lon="1.73629">
        <ele>130.81665039062</ele>
        <time>2017-03-04T09:56:54Z</time>
      </trkpt>
      <trkpt lat="48.7565" lon="1.73617">
        <ele>131.70623779297</ele>
        <time>2017-03-04T09:57:02Z</time>
      </trkpt>
      <trkpt lat="48.7565" lon="1.73637">
        <ele>130.15667724609</ele>
        <time>2017-03-04T09:57:25Z</time>
      </trkpt>
      <trkpt lat="48.75656" lon="1.73656">
        <ele>134.86340332031</ele>
        <time>2017-03-04T09:57:42Z</time>
      </trkpt>
      <trkpt lat="48.75658" lon="1.73676">
        <ele>128.66870117188</ele>
        <time>2017-03-04T09:57:54Z</time>
      </trkpt>
      <trkpt lat="48.75663" lon="1.73696">
        <ele>128.74633789062</ele>
        <time>2017-03-04T09:58:03Z</time>
      </trkpt>
      <trkpt lat="48.75658" lon="1.73716">
        <ele>130.77734375</ele>
        <time>2017-03-04T09:58:14Z</time>
      </trkpt>
      <trkpt lat="48.75649" lon="1.73733">
        <ele>136.78979492188</ele>
        <time>2017-03-04T09:58:23Z</time>
      </trkpt>
      <trkpt lat="48.75644" lon="1.73754">
        <ele>135.02630615234</ele>
        <time>2017-03-04T09:58:37Z</time>
      </trkpt>
      <trkpt lat="48.75641" lon="1.73774">
        <ele>131.63330078125</ele>
        <time>2017-03-04T09:58:45Z</time>
      </trkpt>
      <trkpt lat="48.75638" lon="1.73795">
        <ele>125.64019775391</ele>
        <time>2017-03-04T09:58:54Z</time>
      </trkpt>
      <trkpt lat="48.7564" lon="1.73817">
        <ele>129.13171386719</ele>
        <time>2017-03-04T09:59:06Z</time>
      </trkpt>
      <trkpt lat="48.75638" lon="1.73838">
        <ele>135.25274658203</ele>
        <time>2017-03-04T09:59:15Z</time>
      </trkpt>
      <trkpt lat="48.75638" lon="1.73858">
        <ele>138.84887695312</ele>
        <time>2017-03-04T09:59:23Z</time>
      </trkpt>
      <trkpt lat="48.75629" lon="1.73875">
        <ele>139.10296630859</ele>
        <time>2017-03-04T09:59:29Z</time>
      </trkpt>
      <trkpt lat="48.75629" lon="1.73897">
        <ele>134.30004882812</ele>
        <time>2017-03-04T09:59:46Z</time>
      </trkpt>
      <trkpt lat="48.75624" lon="1.73917">
        <ele>130.23999023438</ele>
        <time>2017-03-04T09:59:55Z</time>
      </trkpt>
      <trkpt lat="48.75615" lon="1.73933">
        <ele>132.98974609375</ele>
        <time>2017-03-04T10:00:02Z</time>
      </trkpt>
      <trkpt lat="48.756" lon="1.73946">
        <ele>132.75061035156</ele>
        <time>2017-03-04T10:00:08Z</time>
      </trkpt>
      <trkpt lat="48.75584" lon="1.73963">
        <ele>127.72393798828</ele>
        <time>2017-03-04T10:00:21Z</time>
      </trkpt>
      <trkpt lat="48.7557" lon="1.73968">
        <ele>129.60388183594</ele>
        <time>2017-03-04T10:00:30Z</time>
      </trkpt>
      <trkpt lat="48.75558" lon="1.7398">
        <ele>129.84246826172</ele>
        <time>2017-03-04T10:00:41Z</time>
      </trkpt>
      <trkpt lat="48.75545" lon="1.73986">
        <ele>134.19604492188</ele>
        <time>2017-03-04T10:00:57Z</time>
      </trkpt>
      <trkpt lat="48.75532" lon="1.73989">
        <ele>129.84313964844</ele>
        <time>2017-03-04T10:01:03Z</time>
      </trkpt>
      <trkpt lat="48.75518" lon="1.73987">
        <ele>130.78662109375</ele>
        <time>2017-03-04T10:01:13Z</time>
      </trkpt>
      <trkpt lat="48.75502" lon="1.73991">
        <ele>125.08599853516</ele>
        <time>2017-03-04T10:01:21Z</time>
      </trkpt>
      <trkpt lat="48.75487" lon="1.73986">
        <ele>124.56030273438</ele>
        <time>2017-03-04T10:01:26Z</time>
      </trkpt>
      <trkpt lat="48.755" lon="1.73995">
        <ele>123.48602294922</ele>
        <time>2017-03-04T10:01:34Z</time>
      </trkpt>
      <trkpt lat="48.75484" lon="1.73995">
        <ele>131.28295898438</ele>
        <time>2017-03-04T10:02:34Z</time>
      </trkpt>
      <trkpt lat="48.75468" lon="1.73988">
        <ele>123.21356201172</ele>
        <time>2017-03-04T10:02:38Z</time>
      </trkpt>
      <trkpt lat="48.75451" lon="1.73985">
        <ele>125.3525390625</ele>
        <time>2017-03-04T10:02:41Z</time>
      </trkpt>
      <trkpt lat="48.75436" lon="1.73982">
        <ele>128.89752197266</ele>
        <time>2017-03-04T10:02:53Z</time>
      </trkpt>
      <trkpt lat="48.75421" lon="1.73977">
        <ele>133.82470703125</ele>
        <time>2017-03-04T10:03:00Z</time>
      </trkpt>
      <trkpt lat="48.75406" lon="1.7397">
        <ele>128.34375</ele>
        <time>2017-03-04T10:03:37Z</time>
      </trkpt>
      <trkpt lat="48.75394" lon="1.73962">
        <ele>122.68176269531</ele>
        <time>2017-03-04T10:03:43Z</time>
      </trkpt>
      <trkpt lat="48.75381" lon="1.73954">
        <ele>119.93176269531</ele>
        <time>2017-03-04T10:03:49Z</time>
      </trkpt>
      <trkpt lat="48.75368" lon="1.73946">
        <ele>120.41259765625</ele>
        <time>2017-03-04T10:03:53Z</time>
      </trkpt>
      <trkpt lat="48.75355" lon="1.73938">
        <ele>122.05908203125</ele>
        <time>2017-03-04T10:04:01Z</time>
      </trkpt>
      <trkpt lat="48.75347" lon="1.7392">
        <ele>121.53900146484</ele>
        <time>2017-03-04T10:04:10Z</time>
      </trkpt>
      <trkpt lat="48.75333" lon="1.73914">
        <ele>120.6943359375</ele>
        <time>2017-03-04T10:04:17Z</time>
      </trkpt>
      <trkpt lat="48.75316" lon="1.73913">
        <ele>119.92913818359</ele>
        <time>2017-03-04T10:04:24Z</time>
      </trkpt>
      <trkpt lat="48.75304" lon="1.73903">
        <ele>118.45245361328</ele>
        <time>2017-03-04T10:04:33Z</time>
      </trkpt>
      <trkpt lat="48.75299" lon="1.73881">
        <ele>118.17059326172</ele>
        <time>2017-03-04T10:04:41Z</time>
      </trkpt>
      <trkpt lat="48.75285" lon="1.73872">
        <ele>116.14367675781</ele>
        <time>2017-03-04T10:04:47Z</time>
      </trkpt>
      <trkpt lat="48.75282" lon="1.7385">
        <ele>120.64074707031</ele>
        <time>2017-03-04T10:04:57Z</time>
      </trkpt>
      <trkpt lat="48.75273" lon="1.73832">
        <ele>120.95471191406</ele>
        <time>2017-03-04T10:05:04Z</time>
      </trkpt>
      <trkpt lat="48.75259" lon="1.73817">
        <ele>119.11798095703</ele>
        <time>2017-03-04T10:05:26Z</time>
      </trkpt>
      <trkpt lat="48.75254" lon="1.73796">
        <ele>119.29742431641</ele>
        <time>2017-03-04T10:05:32Z</time>
      </trkpt>
      <trkpt lat="48.75252" lon="1.73775">
        <ele>118.28668212891</ele>
        <time>2017-03-04T10:05:40Z</time>
      </trkpt>
      <trkpt lat="48.75242" lon="1.7376">
        <ele>121.34539794922</ele>
        <time>2017-03-04T10:05:49Z</time>
      </trkpt>
      <trkpt lat="48.75232" lon="1.73744">
        <ele>121.92224121094</ele>
        <time>2017-03-04T10:05:55Z</time>
      </trkpt>
      <trkpt lat="48.75226" lon="1.73724">
        <ele>121.85668945312</ele>
        <time>2017-03-04T10:06:02Z</time>
      </trkpt>
      <trkpt lat="48.75218" lon="1.73705">
        <ele>121.75982666016</ele>
        <time>2017-03-04T10:06:14Z</time>
      </trkpt>
      <trkpt lat="48.75204" lon="1.73707">
        <ele>127.89019775391</ele>
        <time>2017-03-04T10:06:38Z</time>
      </trkpt>
      <trkpt lat="48.7519" lon="1.73714">
        <ele>126.69506835938</ele>
        <time>2017-03-04T10:06:47Z</time>
      </trkpt>
      <trkpt lat="48.75177" lon="1.73725">
        <ele>128.90081787109</ele>
        <time>2017-03-04T10:07:00Z</time>
      </trkpt>
      <trkpt lat="48.75168" lon="1.73742">
        <ele>126.74127197266</ele>
        <time>2017-03-04T10:07:11Z</time>
      </trkpt>
      <trkpt lat="48.75156" lon="1.73756">
        <ele>123.73303222656</ele>
        <time>2017-03-04T10:07:19Z</time>
      </trkpt>
      <trkpt lat="48.75141" lon="1.73756">
        <ele>121.65521240234</ele>
        <time>2017-03-04T10:07:27Z</time>
      </trkpt>
      <trkpt lat="48.75129" lon="1.73766">
        <ele>125.97436523438</ele>
        <time>2017-03-04T10:07:36Z</time>
      </trkpt>
      <trkpt lat="48.75114" lon="1.73775">
        <ele>129.81311035156</ele>
        <time>2017-03-04T10:07:46Z</time>
      </trkpt>
      <trkpt lat="48.75102" lon="1.73789">
        <ele>132.19927978516</ele>
        <time>2017-03-04T10:07:52Z</time>
      </trkpt>
      <trkpt lat="48.75094" lon="1.73808">
        <ele>133.63739013672</ele>
        <time>2017-03-04T10:08:00Z</time>
      </trkpt>
      <trkpt lat="48.7508" lon="1.73818">
        <ele>135.67443847656</ele>
        <time>2017-03-04T10:08:06Z</time>
      </trkpt>
      <trkpt lat="48.75069" lon="1.73832">
        <ele>133.83013916016</ele>
        <time>2017-03-04T10:08:14Z</time>
      </trkpt>
      <trkpt lat="48.7506" lon="1.73849">
        <ele>131.24047851562</ele>
        <time>2017-03-04T10:08:28Z</time>
      </trkpt>
      <trkpt lat="48.75048" lon="1.73859">
        <ele>132.36309814453</ele>
        <time>2017-03-04T10:08:35Z</time>
      </trkpt>
      <trkpt lat="48.75037" lon="1.73874">
        <ele>135.67352294922</ele>
        <time>2017-03-04T10:08:43Z</time>
      </trkpt>
      <trkpt lat="48.75029" lon="1.73893">
        <ele>136.72839355469</ele>
        <time>2017-03-04T10:08:51Z</time>
      </trkpt>
      <trkpt lat="48.75027" lon="1.73914">
        <ele>138.09887695312</ele>
        <time>2017-03-04T10:09:04Z</time>
      </trkpt>
      <trkpt lat="48.75021" lon="1.73933">
        <ele>142.74090576172</ele>
        <time>2017-03-04T10:09:15Z</time>
      </trkpt>
      <trkpt lat="48.75013" lon="1.73953">
        <ele>143.94927978516</ele>
        <time>2017-03-04T10:09:22Z</time>
      </trkpt>
      <trkpt lat="48.75003" lon="1.73968">
        <ele>143.80944824219</ele>
        <time>2017-03-04T10:09:28Z</time>
      </trkpt>
      <trkpt lat="48.74999" lon="1.7399">
        <ele>139.32104492188</ele>
        <time>2017-03-04T10:09:39Z</time>
      </trkpt>
      <trkpt lat="48.75001" lon="1.74012">
        <ele>140.19885253906</ele>
        <time>2017-03-04T10:09:52Z</time>
      </trkpt>
      <trkpt lat="48.74998" lon="1.74035">
        <ele>140.68286132812</ele>
        <time>2017-03-04T10:10:02Z</time>
      </trkpt>
      <trkpt lat="48.74998" lon="1.74059">
        <ele>141.79699707031</ele>
        <time>2017-03-04T10:10:10Z</time>
      </trkpt>
      <trkpt lat="48.74991" lon="1.74078">
        <ele>131.53747558594</ele>
        <time>2017-03-04T10:10:22Z</time>
      </trkpt>
      <trkpt lat="48.7498" lon="1.74096">
        <ele>127.82922363281</ele>
        <time>2017-03-04T10:10:29Z</time>
      </trkpt>
      <trkpt lat="48.74975" lon="1.74115">
        <ele>127.68060302734</ele>
        <time>2017-03-04T10:10:36Z</time>
      </trkpt>
      <trkpt lat="48.74973" lon="1.74137">
        <ele>127.61279296875</ele>
        <time>2017-03-04T10:10:46Z</time>
      </trkpt>
      <trkpt lat="48.74969" lon="1.74157">
        <ele>126.28961181641</ele>
        <time>2017-03-04T10:10:55Z</time>
      </trkpt>
      <trkpt lat="48.74966" lon="1.74181">
        <ele>127.81097412109</ele>
        <time>2017-03-04T10:11:03Z</time>
      </trkpt>
      <trkpt lat="48.74967" lon="1.74201">
        <ele>128.33428955078</ele>
        <time>2017-03-04T10:11:09Z</time>
      </trkpt>
      <trkpt lat="48.74957" lon="1.74216">
        <ele>127.43145751953</ele>
        <time>2017-03-04T10:11:19Z</time>
      </trkpt>
      <trkpt lat="48.74949" lon="1.74233">
        <ele>120.75805664062</ele>
        <time>2017-03-04T10:11:26Z</time>
      </trkpt>
      <trkpt lat="48.7494" lon="1.7425">
        <ele>121.52856445312</ele>
        <time>2017-03-04T10:11:34Z</time>
      </trkpt>
      <trkpt lat="48.74953" lon="1.74263">
        <ele>120.60687255859</ele>
        <time>2017-03-04T10:11:47Z</time>
      </trkpt>
      <trkpt lat="48.74941" lon="1.74292">
        <ele>124.7158203125</ele>
        <time>2017-03-04T10:12:09Z</time>
      </trkpt>
      <trkpt lat="48.74969" lon="1.74281">
        <ele>129.01806640625</ele>
        <time>2017-03-04T10:12:13Z</time>
      </trkpt>
      <trkpt lat="48.74948" lon="1.74275">
        <ele>129.95849609375</ele>
        <time>2017-03-04T10:12:16Z</time>
      </trkpt>
      <trkpt lat="48.74963" lon="1.74278">
        <ele>145.64532470703</ele>
        <time>2017-03-04T10:12:32Z</time>
      </trkpt>
      <trkpt lat="48.74947" lon="1.74273">
        <ele>137.91198730469</ele>
        <time>2017-03-04T10:12:55Z</time>
      </trkpt>
      <trkpt lat="48.74938" lon="1.74294">
        <ele>125.27349853516</ele>
        <time>2017-03-04T10:13:32Z</time>
      </trkpt>
      <trkpt lat="48.74936" lon="1.74315">
        <ele>128.24609375</ele>
        <time>2017-03-04T10:13:38Z</time>
      </trkpt>
      <trkpt lat="48.74942" lon="1.74334">
        <ele>129.0400390625</ele>
        <time>2017-03-04T10:13:45Z</time>
      </trkpt>
      <trkpt lat="48.74944" lon="1.74362">
        <ele>127.59497070312</ele>
        <time>2017-03-04T10:13:55Z</time>
      </trkpt>
      <trkpt lat="48.74947" lon="1.74384">
        <ele>124.00634765625</ele>
        <time>2017-03-04T10:14:01Z</time>
      </trkpt>
      <trkpt lat="48.74939" lon="1.74409">
        <ele>124.11785888672</ele>
        <time>2017-03-04T10:14:05Z</time>
      </trkpt>
      <trkpt lat="48.74926" lon="1.74425">
        <ele>126.80859375</ele>
        <time>2017-03-04T10:14:14Z</time>
      </trkpt>
      <trkpt lat="48.74928" lon="1.74447">
        <ele>128.87622070312</ele>
        <time>2017-03-04T10:14:22Z</time>
      </trkpt>
      <trkpt lat="48.74918" lon="1.74464">
        <ele>122.33532714844</ele>
        <time>2017-03-04T10:14:28Z</time>
      </trkpt>
      <trkpt lat="48.74911" lon="1.74482">
        <ele>128.72479248047</ele>
        <time>2017-03-04T10:14:38Z</time>
      </trkpt>
      <trkpt lat="48.74908" lon="1.74504">
        <ele>125.4404296875</ele>
        <time>2017-03-04T10:14:46Z</time>
      </trkpt>
      <trkpt lat="48.74903" lon="1.74523">
        <ele>127.85186767578</ele>
        <time>2017-03-04T10:14:51Z</time>
      </trkpt>
      <trkpt lat="48.749" lon="1.74543">
        <ele>128.45166015625</ele>
        <time>2017-03-04T10:14:57Z</time>
      </trkpt>
      <trkpt lat="48.74901" lon="1.74564">
        <ele>127.52777099609</ele>
        <time>2017-03-04T10:15:11Z</time>
      </trkpt>
      <trkpt lat="48.7489" lon="1.74585">
        <ele>128.74359130859</ele>
        <time>2017-03-04T10:15:18Z</time>
      </trkpt>
      <trkpt lat="48.7489" lon="1.74606">
        <ele>128.82409667969</ele>
        <time>2017-03-04T10:15:27Z</time>
      </trkpt>
      <trkpt lat="48.74895" lon="1.74627">
        <ele>131.8525390625</ele>
        <time>2017-03-04T10:15:35Z</time>
      </trkpt>
      <trkpt lat="48.74891" lon="1.74651">
        <ele>133.33911132812</ele>
        <time>2017-03-04T10:15:45Z</time>
      </trkpt>
      <trkpt lat="48.74884" lon="1.74671">
        <ele>129.48779296875</ele>
        <time>2017-03-04T10:15:52Z</time>
      </trkpt>
      <trkpt lat="48.74883" lon="1.74692">
        <ele>124.52172851562</ele>
        <time>2017-03-04T10:16:07Z</time>
      </trkpt>
      <trkpt lat="48.7488" lon="1.74716">
        <ele>125.29132080078</ele>
        <time>2017-03-04T10:16:17Z</time>
      </trkpt>
      <trkpt lat="48.74884" lon="1.74737">
        <ele>130.30780029297</ele>
        <time>2017-03-04T10:16:26Z</time>
      </trkpt>
      <trkpt lat="48.74874" lon="1.74769">
        <ele>130.21624755859</ele>
        <time>2017-03-04T10:16:43Z</time>
      </trkpt>
      <trkpt lat="48.74865" lon="1.74784">
        <ele>130.11706542969</ele>
        <time>2017-03-04T10:16:48Z</time>
      </trkpt>
      <trkpt lat="48.74861" lon="1.74804">
        <ele>130.08990478516</ele>
        <time>2017-03-04T10:16:58Z</time>
      </trkpt>
      <trkpt lat="48.74861" lon="1.74825">
        <ele>131.61798095703</ele>
        <time>2017-03-04T10:17:07Z</time>
      </trkpt>
      <trkpt lat="48.74861" lon="1.74849">
        <ele>134.67388916016</ele>
        <time>2017-03-04T10:17:14Z</time>
      </trkpt>
      <trkpt lat="48.74859" lon="1.7487">
        <ele>134.30358886719</ele>
        <time>2017-03-04T10:17:20Z</time>
      </trkpt>
      <trkpt lat="48.74869" lon="1.74884">
        <ele>136.04058837891</ele>
        <time>2017-03-04T10:17:26Z</time>
      </trkpt>
      <trkpt lat="48.74881" lon="1.74898">
        <ele>138.38885498047</ele>
        <time>2017-03-04T10:17:37Z</time>
      </trkpt>
      <trkpt lat="48.74889" lon="1.74916">
        <ele>140.71697998047</ele>
        <time>2017-03-04T10:17:53Z</time>
      </trkpt>
      <trkpt lat="48.74894" lon="1.74936">
        <ele>144.48425292969</ele>
        <time>2017-03-04T10:18:03Z</time>
      </trkpt>
      <trkpt lat="48.74892" lon="1.74957">
        <ele>145.78045654297</ele>
        <time>2017-03-04T10:18:12Z</time>
      </trkpt>
      <trkpt lat="48.74892" lon="1.74978">
        <ele>148.37463378906</ele>
        <time>2017-03-04T10:18:21Z</time>
      </trkpt>
      <trkpt lat="48.74904" lon="1.74992">
        <ele>151.67755126953</ele>
        <time>2017-03-04T10:18:30Z</time>
      </trkpt>
      <trkpt lat="48.74904" lon="1.75014">
        <ele>152.3935546875</ele>
        <time>2017-03-04T10:18:40Z</time>
      </trkpt>
      <trkpt lat="48.74901" lon="1.75036">
        <ele>156.38647460938</ele>
        <time>2017-03-04T10:18:47Z</time>
      </trkpt>
      <trkpt lat="48.74915" lon="1.75033">
        <ele>156.81658935547</ele>
        <time>2017-03-04T10:18:53Z</time>
      </trkpt>
      <trkpt lat="48.74927" lon="1.75046">
        <ele>154.91632080078</ele>
        <time>2017-03-04T10:19:01Z</time>
      </trkpt>
      <trkpt lat="48.7494" lon="1.75057">
        <ele>161.53918457031</ele>
        <time>2017-03-04T10:19:14Z</time>
      </trkpt>
      <trkpt lat="48.74952" lon="1.75069">
        <ele>161.60809326172</ele>
        <time>2017-03-04T10:19:22Z</time>
      </trkpt>
      <trkpt lat="48.74939" lon="1.75075">
        <ele>160.09423828125</ele>
        <time>2017-03-04T10:19:54Z</time>
      </trkpt>
      <trkpt lat="48.74953" lon="1.75072">
        <ele>159.06384277344</ele>
        <time>2017-03-04T10:20:19Z</time>
      </trkpt>
      <trkpt lat="48.7494" lon="1.75063">
        <ele>165.666015625</ele>
        <time>2017-03-04T10:21:40Z</time>
      </trkpt>
      <trkpt lat="48.7493" lon="1.75076">
        <ele>158.22808837891</ele>
        <time>2017-03-04T10:21:51Z</time>
      </trkpt>
      <trkpt lat="48.74917" lon="1.75072">
        <ele>154.19641113281</ele>
        <time>2017-03-04T10:21:57Z</time>
      </trkpt>
      <trkpt lat="48.74902" lon="1.75072">
        <ele>153.0029296875</ele>
        <time>2017-03-04T10:22:03Z</time>
      </trkpt>
      <trkpt lat="48.7489" lon="1.75083">
        <ele>154.54284667969</ele>
        <time>2017-03-04T10:22:11Z</time>
      </trkpt>
      <trkpt lat="48.74874" lon="1.75091">
        <ele>151.94934082031</ele>
        <time>2017-03-04T10:22:16Z</time>
      </trkpt>
      <trkpt lat="48.74861" lon="1.751">
        <ele>154.69287109375</ele>
        <time>2017-03-04T10:22:22Z</time>
      </trkpt>
      <trkpt lat="48.74847" lon="1.75101">
        <ele>155.35961914062</ele>
        <time>2017-03-04T10:22:32Z</time>
      </trkpt>
      <trkpt lat="48.74833" lon="1.75102">
        <ele>155.25640869141</ele>
        <time>2017-03-04T10:22:40Z</time>
      </trkpt>
      <trkpt lat="48.74823" lon="1.75115">
        <ele>148.77764892578</ele>
        <time>2017-03-04T10:22:52Z</time>
      </trkpt>
      <trkpt lat="48.74819" lon="1.75135">
        <ele>152.30834960938</ele>
        <time>2017-03-04T10:23:00Z</time>
      </trkpt>
      <trkpt lat="48.74815" lon="1.75155">
        <ele>152.130859375</ele>
        <time>2017-03-04T10:23:09Z</time>
      </trkpt>
      <trkpt lat="48.7481" lon="1.75175">
        <ele>151.09283447266</ele>
        <time>2017-03-04T10:23:18Z</time>
      </trkpt>
      <trkpt lat="48.7481" lon="1.75196">
        <ele>155.13970947266</ele>
        <time>2017-03-04T10:23:51Z</time>
      </trkpt>
      <trkpt lat="48.7481" lon="1.75218">
        <ele>157.51098632812</ele>
        <time>2017-03-04T10:23:58Z</time>
      </trkpt>
      <trkpt lat="48.7481" lon="1.75239">
        <ele>158.6123046875</ele>
        <time>2017-03-04T10:24:04Z</time>
      </trkpt>
      <trkpt lat="48.74813" lon="1.75259">
        <ele>158.1591796875</ele>
        <time>2017-03-04T10:24:09Z</time>
      </trkpt>
      <trkpt lat="48.74817" lon="1.7528">
        <ele>160.83050537109</ele>
        <time>2017-03-04T10:24:16Z</time>
      </trkpt>
      <trkpt lat="48.74818" lon="1.75304">
        <ele>155.18225097656</ele>
        <time>2017-03-04T10:24:28Z</time>
      </trkpt>
      <trkpt lat="48.74812" lon="1.75327">
        <ele>153.74719238281</ele>
        <time>2017-03-04T10:24:34Z</time>
      </trkpt>
      <trkpt lat="48.74815" lon="1.75349">
        <ele>153.33215332031</ele>
        <time>2017-03-04T10:24:45Z</time>
      </trkpt>
      <trkpt lat="48.74828" lon="1.75358">
        <ele>153.73852539062</ele>
        <time>2017-03-04T10:24:52Z</time>
      </trkpt>
      <trkpt lat="48.74832" lon="1.7538">
        <ele>145.89099121094</ele>
        <time>2017-03-04T10:25:08Z</time>
      </trkpt>
      <trkpt lat="48.74829" lon="1.75409">
        <ele>146.87219238281</ele>
        <time>2017-03-04T10:25:18Z</time>
      </trkpt>
      <trkpt lat="48.74822" lon="1.75429">
        <ele>144.96856689453</ele>
        <time>2017-03-04T10:25:23Z</time>
      </trkpt>
      <trkpt lat="48.74823" lon="1.7545">
        <ele>149.81298828125</ele>
        <time>2017-03-04T10:25:34Z</time>
      </trkpt>
      <trkpt lat="48.74823" lon="1.75472">
        <ele>147.69537353516</ele>
        <time>2017-03-04T10:25:46Z</time>
      </trkpt>
      <trkpt lat="48.74825" lon="1.75494">
        <ele>141.02404785156</ele>
        <time>2017-03-04T10:25:55Z</time>
      </trkpt>
      <trkpt lat="48.74818" lon="1.75513">
        <ele>137.26599121094</ele>
        <time>2017-03-04T10:26:08Z</time>
      </trkpt>
      <trkpt lat="48.74806" lon="1.75524">
        <ele>139.00231933594</ele>
        <time>2017-03-04T10:26:16Z</time>
      </trkpt>
      <trkpt lat="48.74798" lon="1.75542">
        <ele>140.54095458984</ele>
        <time>2017-03-04T10:26:23Z</time>
      </trkpt>
      <trkpt lat="48.74792" lon="1.75561">
        <ele>142.00762939453</ele>
        <time>2017-03-04T10:26:29Z</time>
      </trkpt>
      <trkpt lat="48.74782" lon="1.75576">
        <ele>146.44323730469</ele>
        <time>2017-03-04T10:26:36Z</time>
      </trkpt>
      <trkpt lat="48.74773" lon="1.75594">
        <ele>146.94793701172</ele>
        <time>2017-03-04T10:26:46Z</time>
      </trkpt>
      <trkpt lat="48.74763" lon="1.75609">
        <ele>145.58917236328</ele>
        <time>2017-03-04T10:26:54Z</time>
      </trkpt>
      <trkpt lat="48.74764" lon="1.7563">
        <ele>145.15991210938</ele>
        <time>2017-03-04T10:27:01Z</time>
      </trkpt>
      <trkpt lat="48.7476" lon="1.7565">
        <ele>147.20758056641</ele>
        <time>2017-03-04T10:27:13Z</time>
      </trkpt>
      <trkpt lat="48.74756" lon="1.75671">
        <ele>141.88983154297</ele>
        <time>2017-03-04T10:27:21Z</time>
      </trkpt>
      <trkpt lat="48.74754" lon="1.75693">
        <ele>140.22009277344</ele>
        <time>2017-03-04T10:27:30Z</time>
      </trkpt>
      <trkpt lat="48.74746" lon="1.75712">
        <ele>135.75396728516</ele>
        <time>2017-03-04T10:27:43Z</time>
      </trkpt>
      <trkpt lat="48.74747" lon="1.75736">
        <ele>128.78881835938</ele>
        <time>2017-03-04T10:27:53Z</time>
      </trkpt>
      <trkpt lat="48.74751" lon="1.75758">
        <ele>131.25170898438</ele>
        <time>2017-03-04T10:28:00Z</time>
      </trkpt>
      <trkpt lat="48.7476" lon="1.75773">
        <ele>134.0546875</ele>
        <time>2017-03-04T10:28:07Z</time>
      </trkpt>
      <trkpt lat="48.74774" lon="1.75777">
        <ele>136.73913574219</ele>
        <time>2017-03-04T10:28:12Z</time>
      </trkpt>
      <trkpt lat="48.74765" lon="1.75806">
        <ele>136.20495605469</ele>
        <time>2017-03-04T10:28:19Z</time>
      </trkpt>
      <trkpt lat="48.74761" lon="1.75826">
        <ele>135.85882568359</ele>
        <time>2017-03-04T10:28:27Z</time>
      </trkpt>
      <trkpt lat="48.74772" lon="1.7584">
        <ele>133.18731689453</ele>
        <time>2017-03-04T10:28:39Z</time>
      </trkpt>
      <trkpt lat="48.74764" lon="1.75859">
        <ele>128.41278076172</ele>
        <time>2017-03-04T10:28:46Z</time>
      </trkpt>
      <trkpt lat="48.74766" lon="1.75882">
        <ele>132.57568359375</ele>
        <time>2017-03-04T10:28:56Z</time>
      </trkpt>
      <trkpt lat="48.7477" lon="1.75902">
        <ele>135.63073730469</ele>
        <time>2017-03-04T10:29:02Z</time>
      </trkpt>
      <trkpt lat="48.74769" lon="1.75924">
        <ele>143.26733398438</ele>
        <time>2017-03-04T10:29:09Z</time>
      </trkpt>
      <trkpt lat="48.74763" lon="1.75943">
        <ele>144.11474609375</ele>
        <time>2017-03-04T10:29:16Z</time>
      </trkpt>
      <trkpt lat="48.7476" lon="1.75965">
        <ele>137.09851074219</ele>
        <time>2017-03-04T10:29:28Z</time>
      </trkpt>
      <trkpt lat="48.74752" lon="1.75982">
        <ele>136.28948974609</ele>
        <time>2017-03-04T10:29:41Z</time>
      </trkpt>
      <trkpt lat="48.74742" lon="1.75999">
        <ele>130.05157470703</ele>
        <time>2017-03-04T10:29:53Z</time>
      </trkpt>
      <trkpt lat="48.74729" lon="1.76007">
        <ele>130.45782470703</ele>
        <time>2017-03-04T10:30:00Z</time>
      </trkpt>
      <trkpt lat="48.74715" lon="1.76015">
        <ele>133.64208984375</ele>
        <time>2017-03-04T10:30:10Z</time>
      </trkpt>
      <trkpt lat="48.74708" lon="1.76034">
        <ele>127.41735839844</ele>
        <time>2017-03-04T10:30:21Z</time>
      </trkpt>
      <trkpt lat="48.74696" lon="1.76047">
        <ele>129.85723876953</ele>
        <time>2017-03-04T10:30:29Z</time>
      </trkpt>
      <trkpt lat="48.7468" lon="1.76055">
        <ele>130.16418457031</ele>
        <time>2017-03-04T10:30:37Z</time>
      </trkpt>
      <trkpt lat="48.74666" lon="1.76062">
        <ele>131.97827148438</ele>
        <time>2017-03-04T10:30:51Z</time>
      </trkpt>
      <trkpt lat="48.74652" lon="1.76068">
        <ele>129.10955810547</ele>
        <time>2017-03-04T10:30:59Z</time>
      </trkpt>
      <trkpt lat="48.74637" lon="1.76069">
        <ele>132.18792724609</ele>
        <time>2017-03-04T10:31:11Z</time>
      </trkpt>
      <trkpt lat="48.74623" lon="1.76071">
        <ele>129.28833007812</ele>
        <time>2017-03-04T10:31:18Z</time>
      </trkpt>
      <trkpt lat="48.74608" lon="1.76074">
        <ele>128.48016357422</ele>
        <time>2017-03-04T10:31:25Z</time>
      </trkpt>
      <trkpt lat="48.74593" lon="1.76075">
        <ele>127.12145996094</ele>
        <time>2017-03-04T10:31:36Z</time>
      </trkpt>
      <trkpt lat="48.74579" lon="1.76078">
        <ele>129.25427246094</ele>
        <time>2017-03-04T10:31:43Z</time>
      </trkpt>
      <trkpt lat="48.74565" lon="1.76086">
        <ele>130.21319580078</ele>
        <time>2017-03-04T10:31:50Z</time>
      </trkpt>
      <trkpt lat="48.74551" lon="1.76091">
        <ele>129.61096191406</ele>
        <time>2017-03-04T10:31:56Z</time>
      </trkpt>
      <trkpt lat="48.74543" lon="1.76107">
        <ele>127.84057617188</ele>
        <time>2017-03-04T10:33:20Z</time>
      </trkpt>
      <trkpt lat="48.74527" lon="1.76115">
        <ele>126.56689453125</ele>
        <time>2017-03-04T10:33:28Z</time>
      </trkpt>
      <trkpt lat="48.74512" lon="1.76121">
        <ele>121.97283935547</ele>
        <time>2017-03-04T10:33:32Z</time>
      </trkpt>
      <trkpt lat="48.74498" lon="1.76126">
        <ele>121.08148193359</ele>
        <time>2017-03-04T10:33:38Z</time>
      </trkpt>
      <trkpt lat="48.74484" lon="1.7613">
        <ele>121.61859130859</ele>
        <time>2017-03-04T10:33:45Z</time>
      </trkpt>
      <trkpt lat="48.74471" lon="1.76136">
        <ele>126.39575195312</ele>
        <time>2017-03-04T10:33:52Z</time>
      </trkpt>
      <trkpt lat="48.74458" lon="1.76141">
        <ele>131.26989746094</ele>
        <time>2017-03-04T10:33:59Z</time>
      </trkpt>
      <trkpt lat="48.74443" lon="1.76145">
        <ele>132.51263427734</ele>
        <time>2017-03-04T10:34:07Z</time>
      </trkpt>
      <trkpt lat="48.7443" lon="1.76151">
        <ele>132.22058105469</ele>
        <time>2017-03-04T10:34:13Z</time>
      </trkpt>
      <trkpt lat="48.74407" lon="1.76154">
        <ele>131.38232421875</ele>
        <time>2017-03-04T10:34:22Z</time>
      </trkpt>
      <trkpt lat="48.74393" lon="1.76156">
        <ele>128.53637695312</ele>
        <time>2017-03-04T10:34:30Z</time>
      </trkpt>
      <trkpt lat="48.74381" lon="1.76167">
        <ele>131.06225585938</ele>
        <time>2017-03-04T10:34:42Z</time>
      </trkpt>
      <trkpt lat="48.74367" lon="1.76172">
        <ele>130.83868408203</ele>
        <time>2017-03-04T10:34:54Z</time>
      </trkpt>
      <trkpt lat="48.74356" lon="1.76183">
        <ele>133.95867919922</ele>
        <time>2017-03-04T10:35:04Z</time>
      </trkpt>
      <trkpt lat="48.74339" lon="1.76186">
        <ele>138.23645019531</ele>
        <time>2017-03-04T10:35:13Z</time>
      </trkpt>
      <trkpt lat="48.74325" lon="1.76189">
        <ele>132.13073730469</ele>
        <time>2017-03-04T10:35:21Z</time>
      </trkpt>
      <trkpt lat="48.74311" lon="1.76194">
        <ele>126.95227050781</ele>
        <time>2017-03-04T10:35:27Z</time>
      </trkpt>
      <trkpt lat="48.74296" lon="1.76203">
        <ele>128.78784179688</ele>
        <time>2017-03-04T10:35:36Z</time>
      </trkpt>
      <trkpt lat="48.74283" lon="1.76212">
        <ele>134.06359863281</ele>
        <time>2017-03-04T10:35:41Z</time>
      </trkpt>
      <trkpt lat="48.74272" lon="1.76225">
        <ele>132.4296875</ele>
        <time>2017-03-04T10:35:50Z</time>
      </trkpt>
      <trkpt lat="48.7426" lon="1.76236">
        <ele>132.92266845703</ele>
        <time>2017-03-04T10:35:59Z</time>
      </trkpt>
      <trkpt lat="48.74248" lon="1.76246">
        <ele>131.78521728516</ele>
        <time>2017-03-04T10:36:12Z</time>
      </trkpt>
      <trkpt lat="48.74241" lon="1.76273">
        <ele>127.75329589844</ele>
        <time>2017-03-04T10:36:22Z</time>
      </trkpt>
      <trkpt lat="48.74242" lon="1.76294">
        <ele>130.37438964844</ele>
        <time>2017-03-04T10:36:27Z</time>
      </trkpt>
      <trkpt lat="48.74242" lon="1.76317">
        <ele>129.27038574219</ele>
        <time>2017-03-04T10:36:33Z</time>
      </trkpt>
      <trkpt lat="48.74237" lon="1.76338">
        <ele>131.56549072266</ele>
        <time>2017-03-04T10:36:44Z</time>
      </trkpt>
      <trkpt lat="48.74229" lon="1.76356">
        <ele>131.02905273438</ele>
        <time>2017-03-04T10:36:51Z</time>
      </trkpt>
      <trkpt lat="48.74225" lon="1.76375">
        <ele>130.30700683594</ele>
        <time>2017-03-04T10:37:22Z</time>
      </trkpt>
      <trkpt lat="48.74218" lon="1.76396">
        <ele>126.44342041016</ele>
        <time>2017-03-04T10:37:28Z</time>
      </trkpt>
      <trkpt lat="48.74211" lon="1.76416">
        <ele>128.31414794922</ele>
        <time>2017-03-04T10:37:36Z</time>
      </trkpt>
      <trkpt lat="48.74213" lon="1.7644">
        <ele>134.81079101562</ele>
        <time>2017-03-04T10:37:45Z</time>
      </trkpt>
      <trkpt lat="48.74216" lon="1.7646">
        <ele>135.40649414062</ele>
        <time>2017-03-04T10:37:51Z</time>
      </trkpt>
      <trkpt lat="48.74224" lon="1.76482">
        <ele>138.0732421875</ele>
        <time>2017-03-04T10:37:59Z</time>
      </trkpt>
      <trkpt lat="48.74238" lon="1.76496">
        <ele>137.81024169922</ele>
        <time>2017-03-04T10:38:03Z</time>
      </trkpt>
      <trkpt lat="48.74236" lon="1.76521">
        <ele>137.87756347656</ele>
        <time>2017-03-04T10:38:10Z</time>
      </trkpt>
      <trkpt lat="48.74233" lon="1.76546">
        <ele>139.38751220703</ele>
        <time>2017-03-04T10:38:15Z</time>
      </trkpt>
      <trkpt lat="48.74244" lon="1.76559">
        <ele>138.77459716797</ele>
        <time>2017-03-04T10:38:28Z</time>
      </trkpt>
      <trkpt lat="48.74234" lon="1.7658">
        <ele>142.74688720703</ele>
        <time>2017-03-04T10:38:34Z</time>
      </trkpt>
      <trkpt lat="48.74234" lon="1.76601">
        <ele>139.90557861328</ele>
        <time>2017-03-04T10:38:47Z</time>
      </trkpt>
      <trkpt lat="48.74233" lon="1.76623">
        <ele>146.71520996094</ele>
        <time>2017-03-04T10:38:56Z</time>
      </trkpt>
      <trkpt lat="48.74229" lon="1.76643">
        <ele>144.84033203125</ele>
        <time>2017-03-04T10:39:05Z</time>
      </trkpt>
      <trkpt lat="48.74223" lon="1.76663">
        <ele>147.01177978516</ele>
        <time>2017-03-04T10:39:11Z</time>
      </trkpt>
      <trkpt lat="48.7422" lon="1.76685">
        <ele>146.21014404297</ele>
        <time>2017-03-04T10:39:21Z</time>
      </trkpt>
      <trkpt lat="48.74215" lon="1.76704">
        <ele>141.92175292969</ele>
        <time>2017-03-04T10:39:27Z</time>
      </trkpt>
      <trkpt lat="48.74209" lon="1.76727">
        <ele>144.15667724609</ele>
        <time>2017-03-04T10:39:35Z</time>
      </trkpt>
      <trkpt lat="48.7421" lon="1.76749">
        <ele>143.84124755859</ele>
        <time>2017-03-04T10:39:43Z</time>
      </trkpt>
      <trkpt lat="48.74205" lon="1.76772">
        <ele>140.02990722656</ele>
        <time>2017-03-04T10:39:54Z</time>
      </trkpt>
      <trkpt lat="48.74191" lon="1.76796">
        <ele>145.38684082031</ele>
        <time>2017-03-04T10:42:03Z</time>
      </trkpt>
      <trkpt lat="48.74182" lon="1.76814">
        <ele>148.25701904297</ele>
        <time>2017-03-04T10:42:08Z</time>
      </trkpt>
      <trkpt lat="48.74175" lon="1.76833">
        <ele>148.79144287109</ele>
        <time>2017-03-04T10:42:14Z</time>
      </trkpt>
      <trkpt lat="48.74166" lon="1.76849">
        <ele>143.69274902344</ele>
        <time>2017-03-04T10:42:21Z</time>
      </trkpt>
      <trkpt lat="48.74158" lon="1.76866">
        <ele>143.61431884766</ele>
        <time>2017-03-04T10:42:27Z</time>
      </trkpt>
      <trkpt lat="48.74148" lon="1.76884">
        <ele>144.24047851562</ele>
        <time>2017-03-04T10:42:34Z</time>
      </trkpt>
      <trkpt lat="48.7414" lon="1.76901">
        <ele>140.3330078125</ele>
        <time>2017-03-04T10:42:41Z</time>
      </trkpt>
      <trkpt lat="48.74134" lon="1.76919">
        <ele>141.19476318359</ele>
        <time>2017-03-04T10:42:49Z</time>
      </trkpt>
      <trkpt lat="48.74128" lon="1.76939">
        <ele>142.02917480469</ele>
        <time>2017-03-04T10:42:56Z</time>
      </trkpt>
      <trkpt lat="48.74121" lon="1.76957">
        <ele>141.49108886719</ele>
        <time>2017-03-04T10:43:04Z</time>
      </trkpt>
      <trkpt lat="48.74113" lon="1.76975">
        <ele>143.05841064453</ele>
        <time>2017-03-04T10:43:13Z</time>
      </trkpt>
      <trkpt lat="48.74103" lon="1.76991">
        <ele>141.03948974609</ele>
        <time>2017-03-04T10:43:21Z</time>
      </trkpt>
      <trkpt lat="48.74094" lon="1.77007">
        <ele>139.54718017578</ele>
        <time>2017-03-04T10:43:29Z</time>
      </trkpt>
      <trkpt lat="48.74085" lon="1.77022">
        <ele>141.55700683594</ele>
        <time>2017-03-04T10:43:35Z</time>
      </trkpt>
      <trkpt lat="48.74074" lon="1.77038">
        <ele>141.62274169922</ele>
        <time>2017-03-04T10:43:43Z</time>
      </trkpt>
      <trkpt lat="48.74063" lon="1.77049">
        <ele>143.48779296875</ele>
        <time>2017-03-04T10:43:50Z</time>
      </trkpt>
      <trkpt lat="48.74054" lon="1.77065">
        <ele>144.07470703125</ele>
        <time>2017-03-04T10:43:58Z</time>
      </trkpt>
      <trkpt lat="48.74045" lon="1.77081">
        <ele>144.03302001953</ele>
        <time>2017-03-04T10:44:06Z</time>
      </trkpt>
      <trkpt lat="48.74037" lon="1.77102">
        <ele>145.82769775391</ele>
        <time>2017-03-04T10:44:14Z</time>
      </trkpt>
      <trkpt lat="48.74026" lon="1.77114">
        <ele>148.99963378906</ele>
        <time>2017-03-04T10:44:21Z</time>
      </trkpt>
      <trkpt lat="48.74012" lon="1.77121">
        <ele>144.94830322266</ele>
        <time>2017-03-04T10:44:29Z</time>
      </trkpt>
      <trkpt lat="48.74007" lon="1.7714">
        <ele>146.78820800781</ele>
        <time>2017-03-04T10:44:35Z</time>
      </trkpt>
      <trkpt lat="48.74004" lon="1.77162">
        <ele>151.14196777344</ele>
        <time>2017-03-04T10:44:42Z</time>
      </trkpt>
      <trkpt lat="48.73998" lon="1.77184">
        <ele>146.16784667969</ele>
        <time>2017-03-04T10:44:54Z</time>
      </trkpt>
      <trkpt lat="48.73986" lon="1.77194">
        <ele>146.34057617188</ele>
        <time>2017-03-04T10:45:00Z</time>
      </trkpt>
      <trkpt lat="48.73973" lon="1.77202">
        <ele>145.31884765625</ele>
        <time>2017-03-04T10:45:08Z</time>
      </trkpt>
      <trkpt lat="48.73962" lon="1.77216">
        <ele>144.15393066406</ele>
        <time>2017-03-04T10:45:14Z</time>
      </trkpt>
      <trkpt lat="48.73948" lon="1.7722">
        <ele>144.837890625</ele>
        <time>2017-03-04T10:45:18Z</time>
      </trkpt>
      <trkpt lat="48.73928" lon="1.77224">
        <ele>144.853515625</ele>
        <time>2017-03-04T10:45:24Z</time>
      </trkpt>
      <trkpt lat="48.73915" lon="1.77231">
        <ele>143.76776123047</ele>
        <time>2017-03-04T10:45:38Z</time>
      </trkpt>
      <trkpt lat="48.73902" lon="1.77241">
        <ele>142.99975585938</ele>
        <time>2017-03-04T10:45:46Z</time>
      </trkpt>
      <trkpt lat="48.73889" lon="1.77249">
        <ele>135.4521484375</ele>
        <time>2017-03-04T10:45:55Z</time>
      </trkpt>
      <trkpt lat="48.73881" lon="1.77268">
        <ele>138.28741455078</ele>
        <time>2017-03-04T10:46:02Z</time>
      </trkpt>
      <trkpt lat="48.73873" lon="1.77284">
        <ele>142.14697265625</ele>
        <time>2017-03-04T10:46:07Z</time>
      </trkpt>
      <trkpt lat="48.73862" lon="1.773">
        <ele>146.84240722656</ele>
        <time>2017-03-04T10:46:16Z</time>
      </trkpt>
      <trkpt lat="48.7385" lon="1.77312">
        <ele>144.57250976562</ele>
        <time>2017-03-04T10:46:26Z</time>
      </trkpt>
      <trkpt lat="48.73844" lon="1.77331">
        <ele>146.98461914062</ele>
        <time>2017-03-04T10:46:34Z</time>
      </trkpt>
      <trkpt lat="48.73837" lon="1.77349">
        <ele>151.06176757812</ele>
        <time>2017-03-04T10:46:41Z</time>
      </trkpt>
      <trkpt lat="48.73829" lon="1.77366">
        <ele>152.91400146484</ele>
        <time>2017-03-04T10:46:51Z</time>
      </trkpt>
      <trkpt lat="48.7384" lon="1.77393">
        <ele>151.40924072266</ele>
        <time>2017-03-04T10:50:32Z</time>
      </trkpt>
      <trkpt lat="48.7384" lon="1.77415">
        <ele>150.67156982422</ele>
        <time>2017-03-04T10:50:36Z</time>
      </trkpt>
      <trkpt lat="48.73852" lon="1.77434">
        <ele>153.61712646484</ele>
        <time>2017-03-04T10:50:47Z</time>
      </trkpt>
      <trkpt lat="48.73864" lon="1.77444">
        <ele>151.53735351562</ele>
        <time>2017-03-04T10:50:52Z</time>
      </trkpt>
      <trkpt lat="48.73878" lon="1.77448">
        <ele>149.24249267578</ele>
        <time>2017-03-04T10:50:57Z</time>
      </trkpt>
      <trkpt lat="48.73891" lon="1.77455">
        <ele>154.43798828125</ele>
        <time>2017-03-04T10:51:04Z</time>
      </trkpt>
      <trkpt lat="48.73894" lon="1.77476">
        <ele>155.66033935547</ele>
        <time>2017-03-04T10:51:13Z</time>
      </trkpt>
      <trkpt lat="48.73887" lon="1.77497">
        <ele>158.17053222656</ele>
        <time>2017-03-04T10:51:39Z</time>
      </trkpt>
      <trkpt lat="48.73874" lon="1.77521">
        <ele>158.15399169922</ele>
        <time>2017-03-04T10:51:45Z</time>
      </trkpt>
      <trkpt lat="48.73868" lon="1.77543">
        <ele>162.32177734375</ele>
        <time>2017-03-04T10:51:50Z</time>
      </trkpt>
      <trkpt lat="48.73857" lon="1.7758">
        <ele>161.35559082031</ele>
        <time>2017-03-04T10:51:56Z</time>
      </trkpt>
      <trkpt lat="48.73856" lon="1.77603">
        <ele>163.55297851562</ele>
        <time>2017-03-04T10:52:05Z</time>
      </trkpt>
      <trkpt lat="48.73847" lon="1.77621">
        <ele>162.85852050781</ele>
        <time>2017-03-04T10:52:15Z</time>
      </trkpt>
      <trkpt lat="48.73841" lon="1.7764">
        <ele>164.41394042969</ele>
        <time>2017-03-04T10:52:23Z</time>
      </trkpt>
      <trkpt lat="48.73844" lon="1.77661">
        <ele>162.68322753906</ele>
        <time>2017-03-04T10:52:31Z</time>
      </trkpt>
      <trkpt lat="48.73838" lon="1.77681">
        <ele>161.86791992188</ele>
        <time>2017-03-04T10:52:40Z</time>
      </trkpt>
      <trkpt lat="48.73834" lon="1.77702">
        <ele>167.39770507812</ele>
        <time>2017-03-04T10:52:47Z</time>
      </trkpt>
      <trkpt lat="48.73834" lon="1.77725">
        <ele>161.2216796875</ele>
        <time>2017-03-04T10:52:56Z</time>
      </trkpt>
      <trkpt lat="48.7383" lon="1.77746">
        <ele>160.57495117188</ele>
        <time>2017-03-04T10:53:06Z</time>
      </trkpt>
      <trkpt lat="48.73826" lon="1.77767">
        <ele>162.53234863281</ele>
        <time>2017-03-04T10:53:13Z</time>
      </trkpt>
      <trkpt lat="48.73825" lon="1.77788">
        <ele>165.09967041016</ele>
        <time>2017-03-04T10:53:20Z</time>
      </trkpt>
      <trkpt lat="48.73824" lon="1.77809">
        <ele>166.83312988281</ele>
        <time>2017-03-04T10:53:27Z</time>
      </trkpt>
      <trkpt lat="48.73825" lon="1.77831">
        <ele>166.30798339844</ele>
        <time>2017-03-04T10:53:35Z</time>
      </trkpt>
      <trkpt lat="48.73822" lon="1.77854">
        <ele>167.07934570312</ele>
        <time>2017-03-04T10:53:44Z</time>
      </trkpt>
      <trkpt lat="48.73826" lon="1.77874">
        <ele>170.47253417969</ele>
        <time>2017-03-04T10:53:56Z</time>
      </trkpt>
      <trkpt lat="48.73824" lon="1.77895">
        <ele>166.73132324219</ele>
        <time>2017-03-04T10:54:02Z</time>
      </trkpt>
      <trkpt lat="48.73815" lon="1.77912">
        <ele>164.71710205078</ele>
        <time>2017-03-04T10:54:11Z</time>
      </trkpt>
      <trkpt lat="48.73808" lon="1.77929">
        <ele>166.78009033203</ele>
        <time>2017-03-04T10:54:17Z</time>
      </trkpt>
      <trkpt lat="48.73797" lon="1.77944">
        <ele>166.05822753906</ele>
        <time>2017-03-04T10:54:25Z</time>
      </trkpt>
      <trkpt lat="48.73791" lon="1.77962">
        <ele>166.02770996094</ele>
        <time>2017-03-04T10:54:33Z</time>
      </trkpt>
      <trkpt lat="48.7379" lon="1.77984">
        <ele>162.763671875</ele>
        <time>2017-03-04T10:54:40Z</time>
      </trkpt>
      <trkpt lat="48.73787" lon="1.78006">
        <ele>162.83923339844</ele>
        <time>2017-03-04T10:54:50Z</time>
      </trkpt>
      <trkpt lat="48.7378" lon="1.78027">
        <ele>163.24670410156</ele>
        <time>2017-03-04T10:55:00Z</time>
      </trkpt>
      <trkpt lat="48.73776" lon="1.78049">
        <ele>162.68420410156</ele>
        <time>2017-03-04T10:55:07Z</time>
      </trkpt>
      <trkpt lat="48.73777" lon="1.78071">
        <ele>165.26354980469</ele>
        <time>2017-03-04T10:55:13Z</time>
      </trkpt>
      <trkpt lat="48.73775" lon="1.78093">
        <ele>164.81744384766</ele>
        <time>2017-03-04T10:55:21Z</time>
      </trkpt>
      <trkpt lat="48.73769" lon="1.78113">
        <ele>167.57574462891</ele>
        <time>2017-03-04T10:55:31Z</time>
      </trkpt>
      <trkpt lat="48.73766" lon="1.78134">
        <ele>168.67498779297</ele>
        <time>2017-03-04T10:55:37Z</time>
      </trkpt>
      <trkpt lat="48.73761" lon="1.78155">
        <ele>171.62048339844</ele>
        <time>2017-03-04T10:55:47Z</time>
      </trkpt>
      <trkpt lat="48.73754" lon="1.78174">
        <ele>171.84051513672</ele>
        <time>2017-03-04T10:55:54Z</time>
      </trkpt>
      <trkpt lat="48.73755" lon="1.78198">
        <ele>173.92633056641</ele>
        <time>2017-03-04T10:56:03Z</time>
      </trkpt>
      <trkpt lat="48.73756" lon="1.78219">
        <ele>174.43627929688</ele>
        <time>2017-03-04T10:56:13Z</time>
      </trkpt>
      <trkpt lat="48.73755" lon="1.78239">
        <ele>174.93865966797</ele>
        <time>2017-03-04T10:56:17Z</time>
      </trkpt>
      <trkpt lat="48.73749" lon="1.78261">
        <ele>168.60119628906</ele>
        <time>2017-03-04T10:56:24Z</time>
      </trkpt>
      <trkpt lat="48.73741" lon="1.78278">
        <ele>171.69049072266</ele>
        <time>2017-03-04T10:56:31Z</time>
      </trkpt>
      <trkpt lat="48.73736" lon="1.78299">
        <ele>171.11157226562</ele>
        <time>2017-03-04T10:56:39Z</time>
      </trkpt>
      <trkpt lat="48.73737" lon="1.7832">
        <ele>175.56823730469</ele>
        <time>2017-03-04T10:56:48Z</time>
      </trkpt>
      <trkpt lat="48.73734" lon="1.78342">
        <ele>174.80218505859</ele>
        <time>2017-03-04T10:56:55Z</time>
      </trkpt>
      <trkpt lat="48.73726" lon="1.78358">
        <ele>177.54656982422</ele>
        <time>2017-03-04T10:57:03Z</time>
      </trkpt>
      <trkpt lat="48.73723" lon="1.78381">
        <ele>180.17407226562</ele>
        <time>2017-03-04T10:57:11Z</time>
      </trkpt>
      <trkpt lat="48.7372" lon="1.78401">
        <ele>180.73083496094</ele>
        <time>2017-03-04T10:57:18Z</time>
      </trkpt>
      <trkpt lat="48.73715" lon="1.78423">
        <ele>177.45684814453</ele>
        <time>2017-03-04T10:57:26Z</time>
      </trkpt>
      <trkpt lat="48.73713" lon="1.78445">
        <ele>181.44689941406</ele>
        <time>2017-03-04T10:57:34Z</time>
      </trkpt>
      <trkpt lat="48.73713" lon="1.78465">
        <ele>182.34307861328</ele>
        <time>2017-03-04T10:57:44Z</time>
      </trkpt>
      <trkpt lat="48.73709" lon="1.78487">
        <ele>183.70654296875</ele>
        <time>2017-03-04T10:57:50Z</time>
      </trkpt>
      <trkpt lat="48.73704" lon="1.78507">
        <ele>182.72058105469</ele>
        <time>2017-03-04T10:57:56Z</time>
      </trkpt>
      <trkpt lat="48.73699" lon="1.78526">
        <ele>184.11956787109</ele>
        <time>2017-03-04T10:58:03Z</time>
      </trkpt>
      <trkpt lat="48.73694" lon="1.78547">
        <ele>180.05920410156</ele>
        <time>2017-03-04T10:58:10Z</time>
      </trkpt>
      <trkpt lat="48.73685" lon="1.78571">
        <ele>173.85699462891</ele>
        <time>2017-03-04T10:58:20Z</time>
      </trkpt>
      <trkpt lat="48.73678" lon="1.78594">
        <ele>177.28106689453</ele>
        <time>2017-03-04T10:58:26Z</time>
      </trkpt>
      <trkpt lat="48.73676" lon="1.78616">
        <ele>176.56231689453</ele>
        <time>2017-03-04T10:58:34Z</time>
      </trkpt>
      <trkpt lat="48.73675" lon="1.78638">
        <ele>177.42041015625</ele>
        <time>2017-03-04T10:58:42Z</time>
      </trkpt>
      <trkpt lat="48.7367" lon="1.78661">
        <ele>176.76593017578</ele>
        <time>2017-03-04T10:58:52Z</time>
      </trkpt>
      <trkpt lat="48.73666" lon="1.78682">
        <ele>176.75396728516</ele>
        <time>2017-03-04T10:59:02Z</time>
      </trkpt>
      <trkpt lat="48.73659" lon="1.78701">
        <ele>177.0458984375</ele>
        <time>2017-03-04T10:59:09Z</time>
      </trkpt>
      <trkpt lat="48.73656" lon="1.78722">
        <ele>178.90856933594</ele>
        <time>2017-03-04T10:59:16Z</time>
      </trkpt>
      <trkpt lat="48.73654" lon="1.78742">
        <ele>179.21948242188</ele>
        <time>2017-03-04T10:59:23Z</time>
      </trkpt>
      <trkpt lat="48.73649" lon="1.78763">
        <ele>179.74237060547</ele>
        <time>2017-03-04T10:59:30Z</time>
      </trkpt>
      <trkpt lat="48.73643" lon="1.78783">
        <ele>183.13940429688</ele>
        <time>2017-03-04T10:59:36Z</time>
      </trkpt>
      <trkpt lat="48.7364" lon="1.78804">
        <ele>182.55041503906</ele>
        <time>2017-03-04T10:59:45Z</time>
      </trkpt>
      <trkpt lat="48.73636" lon="1.78825">
        <ele>185.04602050781</ele>
        <time>2017-03-04T10:59:53Z</time>
      </trkpt>
      <trkpt lat="48.73632" lon="1.78846">
        <ele>185.33056640625</ele>
        <time>2017-03-04T11:00:01Z</time>
      </trkpt>
      <trkpt lat="48.73629" lon="1.78867">
        <ele>181.93029785156</ele>
        <time>2017-03-04T11:00:09Z</time>
      </trkpt>
      <trkpt lat="48.73623" lon="1.78886">
        <ele>185.89660644531</ele>
        <time>2017-03-04T11:00:18Z</time>
      </trkpt>
      <trkpt lat="48.73621" lon="1.78906">
        <ele>181.9755859375</ele>
        <time>2017-03-04T11:00:25Z</time>
      </trkpt>
      <trkpt lat="48.73615" lon="1.78925">
        <ele>182.3896484375</ele>
        <time>2017-03-04T11:00:35Z</time>
      </trkpt>
      <trkpt lat="48.7361" lon="1.78946">
        <ele>177.87475585938</ele>
        <time>2017-03-04T11:00:46Z</time>
      </trkpt>
      <trkpt lat="48.7361" lon="1.78968">
        <ele>180.73931884766</ele>
        <time>2017-03-04T11:00:55Z</time>
      </trkpt>
      <trkpt lat="48.73608" lon="1.7899">
        <ele>179.91723632812</ele>
        <time>2017-03-04T11:01:02Z</time>
      </trkpt>
      <trkpt lat="48.73607" lon="1.79013">
        <ele>173.20758056641</ele>
        <time>2017-03-04T11:01:08Z</time>
      </trkpt>
      <trkpt lat="48.73605" lon="1.79035">
        <ele>176.75177001953</ele>
        <time>2017-03-04T11:01:14Z</time>
      </trkpt>
      <trkpt lat="48.73598" lon="1.79059">
        <ele>180.12243652344</ele>
        <time>2017-03-04T11:01:25Z</time>
      </trkpt>
      <trkpt lat="48.73584" lon="1.79069">
        <ele>179.34716796875</ele>
        <time>2017-03-04T11:01:32Z</time>
      </trkpt>
      <trkpt lat="48.73586" lon="1.79091">
        <ele>178.37640380859</ele>
        <time>2017-03-04T11:01:38Z</time>
      </trkpt>
      <trkpt lat="48.73589" lon="1.79112">
        <ele>183.86968994141</ele>
        <time>2017-03-04T11:01:43Z</time>
      </trkpt>
      <trkpt lat="48.73579" lon="1.79127">
        <ele>185.96813964844</ele>
        <time>2017-03-04T11:01:49Z</time>
      </trkpt>
      <trkpt lat="48.73575" lon="1.79146">
        <ele>187.05810546875</ele>
        <time>2017-03-04T11:02:02Z</time>
      </trkpt>
      <trkpt lat="48.73571" lon="1.79169">
        <ele>185.44818115234</ele>
        <time>2017-03-04T11:02:09Z</time>
      </trkpt>
      <trkpt lat="48.73566" lon="1.79188">
        <ele>182.45867919922</ele>
        <time>2017-03-04T11:02:15Z</time>
      </trkpt>
      <trkpt lat="48.73563" lon="1.79209">
        <ele>182.09844970703</ele>
        <time>2017-03-04T11:02:27Z</time>
      </trkpt>
      <trkpt lat="48.73557" lon="1.7923">
        <ele>185.04205322266</ele>
        <time>2017-03-04T11:02:35Z</time>
      </trkpt>
      <trkpt lat="48.73553" lon="1.7925">
        <ele>179.36328125</ele>
        <time>2017-03-04T11:02:44Z</time>
      </trkpt>
      <trkpt lat="48.73548" lon="1.79271">
        <ele>179.66455078125</ele>
        <time>2017-03-04T11:02:53Z</time>
      </trkpt>
      <trkpt lat="48.73543" lon="1.79291">
        <ele>175.24139404297</ele>
        <time>2017-03-04T11:03:01Z</time>
      </trkpt>
      <trkpt lat="48.73534" lon="1.79322">
        <ele>178.51928710938</ele>
        <time>2017-03-04T11:03:11Z</time>
      </trkpt>
      <trkpt lat="48.73532" lon="1.79342">
        <ele>180.56268310547</ele>
        <time>2017-03-04T11:03:17Z</time>
      </trkpt>
      <trkpt lat="48.7353" lon="1.79363">
        <ele>178.8603515625</ele>
        <time>2017-03-04T11:03:26Z</time>
      </trkpt>
      <trkpt lat="48.73518" lon="1.79377">
        <ele>182.39318847656</ele>
        <time>2017-03-04T11:03:37Z</time>
      </trkpt>
      <trkpt lat="48.73506" lon="1.7939">
        <ele>178.33374023438</ele>
        <time>2017-03-04T11:03:45Z</time>
      </trkpt>
      <trkpt lat="48.73492" lon="1.79388">
        <ele>180.33850097656</ele>
        <time>2017-03-04T11:04:00Z</time>
      </trkpt>
      <trkpt lat="48.73473" lon="1.79377">
        <ele>183.58367919922</ele>
        <time>2017-03-04T11:04:05Z</time>
      </trkpt>
      <trkpt lat="48.73463" lon="1.79391">
        <ele>187.939453125</ele>
        <time>2017-03-04T11:04:16Z</time>
      </trkpt>
      <trkpt lat="48.73449" lon="1.79398">
        <ele>186.12261962891</ele>
        <time>2017-03-04T11:04:21Z</time>
      </trkpt>
      <trkpt lat="48.73439" lon="1.79412">
        <ele>187.4345703125</ele>
        <time>2017-03-04T11:04:26Z</time>
      </trkpt>
      <trkpt lat="48.73425" lon="1.79407">
        <ele>188.85607910156</ele>
        <time>2017-03-04T11:04:40Z</time>
      </trkpt>
      <trkpt lat="48.73411" lon="1.79407">
        <ele>188.24597167969</ele>
        <time>2017-03-04T11:04:48Z</time>
      </trkpt>
      <trkpt lat="48.73395" lon="1.79408">
        <ele>191.69201660156</ele>
        <time>2017-03-04T11:05:14Z</time>
      </trkpt>
      <trkpt lat="48.7338" lon="1.79405">
        <ele>194.95886230469</ele>
        <time>2017-03-04T11:05:19Z</time>
      </trkpt>
      <trkpt lat="48.73367" lon="1.79412">
        <ele>192.40808105469</ele>
        <time>2017-03-04T11:05:24Z</time>
      </trkpt>
      <trkpt lat="48.73351" lon="1.79414">
        <ele>187.01995849609</ele>
        <time>2017-03-04T11:05:46Z</time>
      </trkpt>
      <trkpt lat="48.73335" lon="1.7942">
        <ele>185.9921875</ele>
        <time>2017-03-04T11:05:53Z</time>
      </trkpt>
      <trkpt lat="48.73321" lon="1.7943">
        <ele>181.93804931641</ele>
        <time>2017-03-04T11:06:07Z</time>
      </trkpt>
      <trkpt lat="48.73307" lon="1.7944">
        <ele>185.57678222656</ele>
        <time>2017-03-04T11:06:17Z</time>
      </trkpt>
      <trkpt lat="48.73299" lon="1.79456">
        <ele>186.44482421875</ele>
        <time>2017-03-04T11:06:25Z</time>
      </trkpt>
      <trkpt lat="48.7329" lon="1.79473">
        <ele>181.84118652344</ele>
        <time>2017-03-04T11:06:33Z</time>
      </trkpt>
      <trkpt lat="48.73277" lon="1.79482">
        <ele>187.73828125</ele>
        <time>2017-03-04T11:06:43Z</time>
      </trkpt>
      <trkpt lat="48.73264" lon="1.79483">
        <ele>182.87939453125</ele>
        <time>2017-03-04T11:06:52Z</time>
      </trkpt>
      <trkpt lat="48.73253" lon="1.79466">
        <ele>178.58941650391</ele>
        <time>2017-03-04T11:07:00Z</time>
      </trkpt>
      <trkpt lat="48.73241" lon="1.79472">
        <ele>174.27307128906</ele>
        <time>2017-03-04T11:07:18Z</time>
      </trkpt>
    </trkseg>
  </trk>
</gpx>